<?xml version="1.0" encoding="UTF-8" standalone="no" ?>
<gpx xmlns="http://www.topografix.com/GPX/1/1" xmlns:xsi="http://www.w3.org/2001/XMLSchema-instance" xsi:schemaLocation="http://www.topografix.com/GPX/1/1 http://www.topografix.com/GPX/1/1/gpx.xsd" version="1.1" creator="VisuGPX - https://www.visugpx.com">
  <metadata>
    <name>Tour du lac du salagou avec boucle du toucou</name>
    <desc><![CDATA[Sur la base du circuit balisé, vous emprunterez des chemins parallèles un peu plus ludiques et rajoutant un peu de D  . cette trace intègre une variante avec la boucle du Toucou]]></desc>
  </metadata>
  <trk>
    <name><![CDATA[ACTIVE LOG 007 001]]></name>
    <trkseg>
      <trkpt lat="43.64436" lon="3.38503">
        <ele>148.66101074219</ele>
        <time>2015-10-04T07:12:28Z</time>
      </trkpt>
      <trkpt lat="43.64391" lon="3.38375">
        <ele>149.1416015625</ele>
        <time>2015-10-04T07:13:12Z</time>
      </trkpt>
      <trkpt lat="43.64426" lon="3.38148">
        <ele>148.66101074219</ele>
        <time>2015-10-04T07:13:58Z</time>
      </trkpt>
      <trkpt lat="43.64428" lon="3.38115">
        <ele>149.62231445312</ele>
        <time>2015-10-04T07:14:05Z</time>
      </trkpt>
      <trkpt lat="43.6441" lon="3.37987">
        <ele>152.02575683594</ele>
        <time>2015-10-04T07:14:49Z</time>
      </trkpt>
      <trkpt lat="43.64407" lon="3.37989">
        <ele>152.02575683594</ele>
        <time>2015-10-04T07:14:50Z</time>
      </trkpt>
      <trkpt lat="43.64382" lon="3.3798">
        <ele>149.1416015625</ele>
        <time>2015-10-04T07:14:57Z</time>
      </trkpt>
      <trkpt lat="43.64375" lon="3.37977">
        <ele>149.1416015625</ele>
        <time>2015-10-04T07:14:59Z</time>
      </trkpt>
      <trkpt lat="43.64383" lon="3.37887">
        <ele>147.21899414062</ele>
        <time>2015-10-04T07:15:21Z</time>
      </trkpt>
      <trkpt lat="43.6443" lon="3.37643">
        <ele>149.1416015625</ele>
        <time>2015-10-04T07:16:16Z</time>
      </trkpt>
      <trkpt lat="43.64427" lon="3.37612">
        <ele>147.69970703125</ele>
        <time>2015-10-04T07:16:22Z</time>
      </trkpt>
      <trkpt lat="43.6447" lon="3.37466">
        <ele>147.21899414062</ele>
        <time>2015-10-04T07:16:52Z</time>
      </trkpt>
      <trkpt lat="43.64475" lon="3.37447">
        <ele>146.73840332031</ele>
        <time>2015-10-04T07:16:55Z</time>
      </trkpt>
      <trkpt lat="43.64412" lon="3.37226">
        <ele>147.69970703125</ele>
        <time>2015-10-04T07:17:53Z</time>
      </trkpt>
      <trkpt lat="43.64376" lon="3.37183">
        <ele>146.2578125</ele>
        <time>2015-10-04T07:18:07Z</time>
      </trkpt>
      <trkpt lat="43.6437" lon="3.37179">
        <ele>147.21899414062</ele>
        <time>2015-10-04T07:18:09Z</time>
      </trkpt>
      <trkpt lat="43.64366" lon="3.37174">
        <ele>147.21899414062</ele>
        <time>2015-10-04T07:18:11Z</time>
      </trkpt>
      <trkpt lat="43.64308" lon="3.37104">
        <ele>150.10302734375</ele>
        <time>2015-10-04T07:18:38Z</time>
      </trkpt>
      <trkpt lat="43.64298" lon="3.37049">
        <ele>148.18041992188</ele>
        <time>2015-10-04T07:18:49Z</time>
      </trkpt>
      <trkpt lat="43.64297" lon="3.37037">
        <ele>147.21899414062</ele>
        <time>2015-10-04T07:18:51Z</time>
      </trkpt>
      <trkpt lat="43.643" lon="3.36986">
        <ele>149.1416015625</ele>
        <time>2015-10-04T07:19:00Z</time>
      </trkpt>
      <trkpt lat="43.6431" lon="3.36834">
        <ele>149.1416015625</ele>
        <time>2015-10-04T07:19:31Z</time>
      </trkpt>
      <trkpt lat="43.64299" lon="3.36793">
        <ele>145.77709960938</ele>
        <time>2015-10-04T07:19:37Z</time>
      </trkpt>
      <trkpt lat="43.64295" lon="3.36785">
        <ele>146.2578125</ele>
        <time>2015-10-04T07:19:38Z</time>
      </trkpt>
      <trkpt lat="43.64302" lon="3.36704">
        <ele>146.73840332031</ele>
        <time>2015-10-04T07:19:51Z</time>
      </trkpt>
      <trkpt lat="43.64307" lon="3.3669">
        <ele>146.73840332031</ele>
        <time>2015-10-04T07:19:53Z</time>
      </trkpt>
      <trkpt lat="43.64301" lon="3.3666">
        <ele>144.81579589844</ele>
        <time>2015-10-04T07:19:58Z</time>
      </trkpt>
      <trkpt lat="43.64278" lon="3.36539">
        <ele>146.73840332031</ele>
        <time>2015-10-04T07:20:21Z</time>
      </trkpt>
      <trkpt lat="43.64278" lon="3.36527">
        <ele>146.73840332031</ele>
        <time>2015-10-04T07:20:23Z</time>
      </trkpt>
      <trkpt lat="43.6428" lon="3.36497">
        <ele>145.29638671875</ele>
        <time>2015-10-04T07:20:28Z</time>
      </trkpt>
      <trkpt lat="43.643" lon="3.36386">
        <ele>149.62231445312</ele>
        <time>2015-10-04T07:20:49Z</time>
      </trkpt>
      <trkpt lat="43.64307" lon="3.36367">
        <ele>149.62231445312</ele>
        <time>2015-10-04T07:20:54Z</time>
      </trkpt>
      <trkpt lat="43.64297" lon="3.36338">
        <ele>152.98693847656</ele>
        <time>2015-10-04T07:21:03Z</time>
      </trkpt>
      <trkpt lat="43.64295" lon="3.36278">
        <ele>157.79357910156</ele>
        <time>2015-10-04T07:21:19Z</time>
      </trkpt>
      <trkpt lat="43.64294" lon="3.36228">
        <ele>161.158203125</ele>
        <time>2015-10-04T07:21:34Z</time>
      </trkpt>
      <trkpt lat="43.64294" lon="3.36225">
        <ele>161.158203125</ele>
        <time>2015-10-04T07:21:35Z</time>
      </trkpt>
      <trkpt lat="43.64292" lon="3.36203">
        <ele>161.158203125</ele>
        <time>2015-10-04T07:21:41Z</time>
      </trkpt>
      <trkpt lat="43.64324" lon="3.36159">
        <ele>162.60009765625</ele>
        <time>2015-10-04T07:22:03Z</time>
      </trkpt>
      <trkpt lat="43.64395" lon="3.36121">
        <ele>159.23547363281</ele>
        <time>2015-10-04T07:22:23Z</time>
      </trkpt>
      <trkpt lat="43.64407" lon="3.36115">
        <ele>158.75476074219</ele>
        <time>2015-10-04T07:22:25Z</time>
      </trkpt>
      <trkpt lat="43.64459" lon="3.36071">
        <ele>157.31286621094</ele>
        <time>2015-10-04T07:22:36Z</time>
      </trkpt>
      <trkpt lat="43.64491" lon="3.36052">
        <ele>156.83215332031</ele>
        <time>2015-10-04T07:22:42Z</time>
      </trkpt>
      <trkpt lat="43.64503" lon="3.36044">
        <ele>154.42895507812</ele>
        <time>2015-10-04T07:22:44Z</time>
      </trkpt>
      <trkpt lat="43.6451" lon="3.3604">
        <ele>154.42895507812</ele>
        <time>2015-10-04T07:22:45Z</time>
      </trkpt>
      <trkpt lat="43.64561" lon="3.36023">
        <ele>150.10302734375</ele>
        <time>2015-10-04T07:22:53Z</time>
      </trkpt>
      <trkpt lat="43.64568" lon="3.36022">
        <ele>150.10302734375</ele>
        <time>2015-10-04T07:22:54Z</time>
      </trkpt>
      <trkpt lat="43.64622" lon="3.36031">
        <ele>145.77709960938</ele>
        <time>2015-10-04T07:23:09Z</time>
      </trkpt>
      <trkpt lat="43.6464" lon="3.36007">
        <ele>147.21899414062</ele>
        <time>2015-10-04T07:23:17Z</time>
      </trkpt>
      <trkpt lat="43.6465" lon="3.36003">
        <ele>149.62231445312</ele>
        <time>2015-10-04T07:23:21Z</time>
      </trkpt>
      <trkpt lat="43.64677" lon="3.36025">
        <ele>148.66101074219</ele>
        <time>2015-10-04T07:23:31Z</time>
      </trkpt>
      <trkpt lat="43.64716" lon="3.36084">
        <ele>145.29638671875</ele>
        <time>2015-10-04T07:23:43Z</time>
      </trkpt>
      <trkpt lat="43.64782" lon="3.36005">
        <ele>145.29638671875</ele>
        <time>2015-10-04T07:24:33Z</time>
      </trkpt>
      <trkpt lat="43.64852" lon="3.35799">
        <ele>144.81579589844</ele>
        <time>2015-10-04T07:25:25Z</time>
      </trkpt>
      <trkpt lat="43.64945" lon="3.35675">
        <ele>143.37365722656</ele>
        <time>2015-10-04T07:26:17Z</time>
      </trkpt>
      <trkpt lat="43.64907" lon="3.35431">
        <ele>141.93176269531</ele>
        <time>2015-10-04T07:27:20Z</time>
      </trkpt>
      <trkpt lat="43.64912" lon="3.35268">
        <ele>141.93176269531</ele>
        <time>2015-10-04T07:27:50Z</time>
      </trkpt>
      <trkpt lat="43.6486" lon="3.35101">
        <ele>143.37365722656</ele>
        <time>2015-10-04T07:28:25Z</time>
      </trkpt>
      <trkpt lat="43.6486" lon="3.35053">
        <ele>142.89306640625</ele>
        <time>2015-10-04T07:28:39Z</time>
      </trkpt>
      <trkpt lat="43.64832" lon="3.3491">
        <ele>142.41247558594</ele>
        <time>2015-10-04T07:29:32Z</time>
      </trkpt>
      <trkpt lat="43.64861" lon="3.34865">
        <ele>145.77709960938</ele>
        <time>2015-10-04T07:29:53Z</time>
      </trkpt>
      <trkpt lat="43.64877" lon="3.34829">
        <ele>148.66101074219</ele>
        <time>2015-10-04T07:30:09Z</time>
      </trkpt>
      <trkpt lat="43.6488" lon="3.34815">
        <ele>150.10302734375</ele>
        <time>2015-10-04T07:30:15Z</time>
      </trkpt>
      <trkpt lat="43.64901" lon="3.34793">
        <ele>153.94836425781</ele>
        <time>2015-10-04T07:30:30Z</time>
      </trkpt>
      <trkpt lat="43.64939" lon="3.34744">
        <ele>159.23547363281</ele>
        <time>2015-10-04T07:30:57Z</time>
      </trkpt>
      <trkpt lat="43.64957" lon="3.34713">
        <ele>162.11950683594</ele>
        <time>2015-10-04T07:31:12Z</time>
      </trkpt>
      <trkpt lat="43.64984" lon="3.34658">
        <ele>165.48413085938</ele>
        <time>2015-10-04T07:31:37Z</time>
      </trkpt>
      <trkpt lat="43.65013" lon="3.34592">
        <ele>169.32946777344</ele>
        <time>2015-10-04T07:32:05Z</time>
      </trkpt>
      <trkpt lat="43.6502" lon="3.3456">
        <ele>173.17468261719</ele>
        <time>2015-10-04T07:32:19Z</time>
      </trkpt>
      <trkpt lat="43.65026" lon="3.34536">
        <ele>175.09729003906</ele>
        <time>2015-10-04T07:32:30Z</time>
      </trkpt>
      <trkpt lat="43.65038" lon="3.34512">
        <ele>178.4619140625</ele>
        <time>2015-10-04T07:32:44Z</time>
      </trkpt>
      <trkpt lat="43.65049" lon="3.34494">
        <ele>181.82641601562</ele>
        <time>2015-10-04T07:32:55Z</time>
      </trkpt>
      <trkpt lat="43.65054" lon="3.34488">
        <ele>183.26843261719</ele>
        <time>2015-10-04T07:33:11Z</time>
      </trkpt>
      <trkpt lat="43.6505" lon="3.34475">
        <ele>182.78784179688</ele>
        <time>2015-10-04T07:37:20Z</time>
      </trkpt>
      <trkpt lat="43.65048" lon="3.34476">
        <ele>183.7490234375</ele>
        <time>2015-10-04T07:37:27Z</time>
      </trkpt>
      <trkpt lat="43.64985" lon="3.34379">
        <ele>179.90380859375</ele>
        <time>2015-10-04T07:37:59Z</time>
      </trkpt>
      <trkpt lat="43.64991" lon="3.3435">
        <ele>175.09729003906</ele>
        <time>2015-10-04T07:38:03Z</time>
      </trkpt>
      <trkpt lat="43.64994" lon="3.34341">
        <ele>175.09729003906</ele>
        <time>2015-10-04T07:38:04Z</time>
      </trkpt>
      <trkpt lat="43.64999" lon="3.34324">
        <ele>177.02001953125</ele>
        <time>2015-10-04T07:38:07Z</time>
      </trkpt>
      <trkpt lat="43.64995" lon="3.34313">
        <ele>178.94262695312</ele>
        <time>2015-10-04T07:38:11Z</time>
      </trkpt>
      <trkpt lat="43.64988" lon="3.34286">
        <ele>182.30712890625</ele>
        <time>2015-10-04T07:38:18Z</time>
      </trkpt>
      <trkpt lat="43.64982" lon="3.34277">
        <ele>183.7490234375</ele>
        <time>2015-10-04T07:38:22Z</time>
      </trkpt>
      <trkpt lat="43.64975" lon="3.34263">
        <ele>184.71057128906</ele>
        <time>2015-10-04T07:38:41Z</time>
      </trkpt>
      <trkpt lat="43.64956" lon="3.34222">
        <ele>183.26843261719</ele>
        <time>2015-10-04T07:38:55Z</time>
      </trkpt>
      <trkpt lat="43.64947" lon="3.34209">
        <ele>182.30712890625</ele>
        <time>2015-10-04T07:38:59Z</time>
      </trkpt>
      <trkpt lat="43.64935" lon="3.34147">
        <ele>180.38452148438</ele>
        <time>2015-10-04T07:39:10Z</time>
      </trkpt>
      <trkpt lat="43.64929" lon="3.34093">
        <ele>178.4619140625</ele>
        <time>2015-10-04T07:40:14Z</time>
      </trkpt>
      <trkpt lat="43.64927" lon="3.34082">
        <ele>177.50061035156</ele>
        <time>2015-10-04T07:40:17Z</time>
      </trkpt>
      <trkpt lat="43.64928" lon="3.34045">
        <ele>174.13586425781</ele>
        <time>2015-10-04T07:40:22Z</time>
      </trkpt>
      <trkpt lat="43.64936" lon="3.34001">
        <ele>174.13586425781</ele>
        <time>2015-10-04T07:40:27Z</time>
      </trkpt>
      <trkpt lat="43.6494" lon="3.33943">
        <ele>170.77136230469</ele>
        <time>2015-10-04T07:40:34Z</time>
      </trkpt>
      <trkpt lat="43.64923" lon="3.33907">
        <ele>165.48413085938</ele>
        <time>2015-10-04T07:40:39Z</time>
      </trkpt>
      <trkpt lat="43.64914" lon="3.33883">
        <ele>162.11950683594</ele>
        <time>2015-10-04T07:40:42Z</time>
      </trkpt>
      <trkpt lat="43.64912" lon="3.33857">
        <ele>157.79357910156</ele>
        <time>2015-10-04T07:40:45Z</time>
      </trkpt>
      <trkpt lat="43.64916" lon="3.33849">
        <ele>157.79357910156</ele>
        <time>2015-10-04T07:40:46Z</time>
      </trkpt>
      <trkpt lat="43.64921" lon="3.33843">
        <ele>155.87097167969</ele>
        <time>2015-10-04T07:40:47Z</time>
      </trkpt>
      <trkpt lat="43.64944" lon="3.3382">
        <ele>159.71618652344</ele>
        <time>2015-10-04T07:40:53Z</time>
      </trkpt>
      <trkpt lat="43.64972" lon="3.33793">
        <ele>160.67749023438</ele>
        <time>2015-10-04T07:41:02Z</time>
      </trkpt>
      <trkpt lat="43.64982" lon="3.3377">
        <ele>160.67749023438</ele>
        <time>2015-10-04T07:41:08Z</time>
      </trkpt>
      <trkpt lat="43.65008" lon="3.33734">
        <ele>158.75476074219</ele>
        <time>2015-10-04T07:41:16Z</time>
      </trkpt>
      <trkpt lat="43.65017" lon="3.33687">
        <ele>155.39025878906</ele>
        <time>2015-10-04T07:41:23Z</time>
      </trkpt>
      <trkpt lat="43.6502" lon="3.33683">
        <ele>155.39025878906</ele>
        <time>2015-10-04T07:41:24Z</time>
      </trkpt>
      <trkpt lat="43.6503" lon="3.33609">
        <ele>152.02575683594</ele>
        <time>2015-10-04T07:41:34Z</time>
      </trkpt>
      <trkpt lat="43.65037" lon="3.33562">
        <ele>148.18041992188</ele>
        <time>2015-10-04T07:41:40Z</time>
      </trkpt>
      <trkpt lat="43.6505" lon="3.33494">
        <ele>146.73840332031</ele>
        <time>2015-10-04T07:41:50Z</time>
      </trkpt>
      <trkpt lat="43.65061" lon="3.33418">
        <ele>143.37365722656</ele>
        <time>2015-10-04T07:42:02Z</time>
      </trkpt>
      <trkpt lat="43.65072" lon="3.33396">
        <ele>143.37365722656</ele>
        <time>2015-10-04T07:42:06Z</time>
      </trkpt>
      <trkpt lat="43.65032" lon="3.33361">
        <ele>143.85437011719</ele>
        <time>2015-10-04T07:42:26Z</time>
      </trkpt>
      <trkpt lat="43.64834" lon="3.33286">
        <ele>143.85437011719</ele>
        <time>2015-10-04T07:44:18Z</time>
      </trkpt>
      <trkpt lat="43.64834" lon="3.33285">
        <ele>144.81579589844</ele>
        <time>2015-10-04T07:46:06Z</time>
      </trkpt>
      <trkpt lat="43.64831" lon="3.3325">
        <ele>141.93176269531</ele>
        <time>2015-10-04T07:46:17Z</time>
      </trkpt>
      <trkpt lat="43.64825" lon="3.3318">
        <ele>141.93176269531</ele>
        <time>2015-10-04T07:46:30Z</time>
      </trkpt>
      <trkpt lat="43.64775" lon="3.33068">
        <ele>140.48986816406</ele>
        <time>2015-10-04T07:46:55Z</time>
      </trkpt>
      <trkpt lat="43.64737" lon="3.3302">
        <ele>141.45104980469</ele>
        <time>2015-10-04T07:47:12Z</time>
      </trkpt>
      <trkpt lat="43.64683" lon="3.32991">
        <ele>137.60583496094</ele>
        <time>2015-10-04T07:47:24Z</time>
      </trkpt>
      <trkpt lat="43.64572" lon="3.32982">
        <ele>143.37365722656</ele>
        <time>2015-10-04T07:47:57Z</time>
      </trkpt>
      <trkpt lat="43.6452" lon="3.32913">
        <ele>144.81579589844</ele>
        <time>2015-10-04T07:48:25Z</time>
      </trkpt>
      <trkpt lat="43.64489" lon="3.32859">
        <ele>140.48986816406</ele>
        <time>2015-10-04T07:48:35Z</time>
      </trkpt>
      <trkpt lat="43.64476" lon="3.32841">
        <ele>141.45104980469</ele>
        <time>2015-10-04T07:48:40Z</time>
      </trkpt>
      <trkpt lat="43.64459" lon="3.32827">
        <ele>140.97045898438</ele>
        <time>2015-10-04T07:48:45Z</time>
      </trkpt>
      <trkpt lat="43.64378" lon="3.32769">
        <ele>141.93176269531</ele>
        <time>2015-10-04T07:49:20Z</time>
      </trkpt>
      <trkpt lat="43.64255" lon="3.32733">
        <ele>140.97045898438</ele>
        <time>2015-10-04T07:49:57Z</time>
      </trkpt>
      <trkpt lat="43.64192" lon="3.32681">
        <ele>140.00915527344</ele>
        <time>2015-10-04T07:50:23Z</time>
      </trkpt>
      <trkpt lat="43.64195" lon="3.32632">
        <ele>141.45104980469</ele>
        <time>2015-10-04T07:51:35Z</time>
      </trkpt>
      <trkpt lat="43.64193" lon="3.32629">
        <ele>140.97045898438</ele>
        <time>2015-10-04T07:52:01Z</time>
      </trkpt>
      <trkpt lat="43.64211" lon="3.32547">
        <ele>139.0478515625</ele>
        <time>2015-10-04T07:52:31Z</time>
      </trkpt>
      <trkpt lat="43.64225" lon="3.32497">
        <ele>140.00915527344</ele>
        <time>2015-10-04T07:52:47Z</time>
      </trkpt>
      <trkpt lat="43.6439" lon="3.32538">
        <ele>138.56726074219</ele>
        <time>2015-10-04T07:53:46Z</time>
      </trkpt>
      <trkpt lat="43.64506" lon="3.32499">
        <ele>140.00915527344</ele>
        <time>2015-10-04T07:54:22Z</time>
      </trkpt>
      <trkpt lat="43.64587" lon="3.32479">
        <ele>140.48986816406</ele>
        <time>2015-10-04T07:54:51Z</time>
      </trkpt>
      <trkpt lat="43.64607" lon="3.32464">
        <ele>144.33520507812</ele>
        <time>2015-10-04T07:55:02Z</time>
      </trkpt>
      <trkpt lat="43.6462" lon="3.32454">
        <ele>147.21899414062</ele>
        <time>2015-10-04T07:55:10Z</time>
      </trkpt>
      <trkpt lat="43.64635" lon="3.32427">
        <ele>150.58361816406</ele>
        <time>2015-10-04T07:55:22Z</time>
      </trkpt>
      <trkpt lat="43.64649" lon="3.32392">
        <ele>150.10302734375</ele>
        <time>2015-10-04T07:55:37Z</time>
      </trkpt>
      <trkpt lat="43.64718" lon="3.32191">
        <ele>151.544921875</ele>
        <time>2015-10-04T07:56:44Z</time>
      </trkpt>
      <trkpt lat="43.6471" lon="3.32139">
        <ele>151.544921875</ele>
        <time>2015-10-04T07:56:58Z</time>
      </trkpt>
      <trkpt lat="43.64691" lon="3.32074">
        <ele>152.02575683594</ele>
        <time>2015-10-04T07:57:14Z</time>
      </trkpt>
      <trkpt lat="43.64652" lon="3.31821">
        <ele>154.42895507812</ele>
        <time>2015-10-04T07:58:12Z</time>
      </trkpt>
      <trkpt lat="43.64654" lon="3.31767">
        <ele>154.42895507812</ele>
        <time>2015-10-04T07:58:26Z</time>
      </trkpt>
      <trkpt lat="43.64673" lon="3.31752">
        <ele>158.75476074219</ele>
        <time>2015-10-04T07:58:38Z</time>
      </trkpt>
      <trkpt lat="43.64625" lon="3.31573">
        <ele>163.08081054688</ele>
        <time>2015-10-04T07:59:35Z</time>
      </trkpt>
      <trkpt lat="43.64601" lon="3.31499">
        <ele>163.08081054688</ele>
        <time>2015-10-04T07:59:57Z</time>
      </trkpt>
      <trkpt lat="43.64591" lon="3.31378">
        <ele>161.158203125</ele>
        <time>2015-10-04T08:00:26Z</time>
      </trkpt>
      <trkpt lat="43.64752" lon="3.31089">
        <ele>163.5615234375</ele>
        <time>2015-10-04T08:01:49Z</time>
      </trkpt>
      <trkpt lat="43.64747" lon="3.31048">
        <ele>162.60009765625</ele>
        <time>2015-10-04T08:02:00Z</time>
      </trkpt>
      <trkpt lat="43.64771" lon="3.30945">
        <ele>166.4453125</ele>
        <time>2015-10-04T08:02:27Z</time>
      </trkpt>
      <trkpt lat="43.64909" lon="3.30866">
        <ele>172.21325683594</ele>
        <time>2015-10-04T08:03:26Z</time>
      </trkpt>
      <trkpt lat="43.64944" lon="3.30892">
        <ele>175.57788085938</ele>
        <time>2015-10-04T08:03:44Z</time>
      </trkpt>
      <trkpt lat="43.65001" lon="3.30827">
        <ele>179.90380859375</ele>
        <time>2015-10-04T08:04:25Z</time>
      </trkpt>
      <trkpt lat="43.65087" lon="3.30668">
        <ele>183.7490234375</ele>
        <time>2015-10-04T08:05:23Z</time>
      </trkpt>
      <trkpt lat="43.65128" lon="3.30611">
        <ele>183.7490234375</ele>
        <time>2015-10-04T08:05:43Z</time>
      </trkpt>
      <trkpt lat="43.65221" lon="3.30551">
        <ele>182.78784179688</ele>
        <time>2015-10-04T08:06:10Z</time>
      </trkpt>
      <trkpt lat="43.65288" lon="3.30467">
        <ele>183.26843261719</ele>
        <time>2015-10-04T08:06:34Z</time>
      </trkpt>
      <trkpt lat="43.65376" lon="3.30365">
        <ele>187.11376953125</ele>
        <time>2015-10-04T08:07:11Z</time>
      </trkpt>
      <trkpt lat="43.65409" lon="3.3033">
        <ele>190.47839355469</ele>
        <time>2015-10-04T08:07:25Z</time>
      </trkpt>
      <trkpt lat="43.65412" lon="3.30328">
        <ele>190.47839355469</ele>
        <time>2015-10-04T08:07:26Z</time>
      </trkpt>
      <trkpt lat="43.65483" lon="3.30262">
        <ele>196.24633789062</ele>
        <time>2015-10-04T08:08:01Z</time>
      </trkpt>
      <trkpt lat="43.65513" lon="3.30236">
        <ele>198.1689453125</ele>
        <time>2015-10-04T08:08:17Z</time>
      </trkpt>
      <trkpt lat="43.65537" lon="3.30251">
        <ele>201.53356933594</ele>
        <time>2015-10-04T08:08:29Z</time>
      </trkpt>
      <trkpt lat="43.65569" lon="3.30272">
        <ele>205.37878417969</ele>
        <time>2015-10-04T08:08:46Z</time>
      </trkpt>
      <trkpt lat="43.65571" lon="3.30273">
        <ele>205.37878417969</ele>
        <time>2015-10-04T08:08:47Z</time>
      </trkpt>
      <trkpt lat="43.65651" lon="3.30368">
        <ele>210.18542480469</ele>
        <time>2015-10-04T08:09:32Z</time>
      </trkpt>
      <trkpt lat="43.65699" lon="3.30414">
        <ele>215.95324707031</ele>
        <time>2015-10-04T08:09:58Z</time>
      </trkpt>
      <trkpt lat="43.65701" lon="3.30415">
        <ele>215.95324707031</ele>
        <time>2015-10-04T08:09:59Z</time>
      </trkpt>
      <trkpt lat="43.65742" lon="3.30421">
        <ele>219.31799316406</ele>
        <time>2015-10-04T08:10:21Z</time>
      </trkpt>
      <trkpt lat="43.65743" lon="3.30421">
        <ele>219.31799316406</ele>
        <time>2015-10-04T08:10:22Z</time>
      </trkpt>
      <trkpt lat="43.65763" lon="3.30415">
        <ele>222.68249511719</ele>
        <time>2015-10-04T08:10:34Z</time>
      </trkpt>
      <trkpt lat="43.65788" lon="3.30419">
        <ele>226.04711914062</ele>
        <time>2015-10-04T08:10:51Z</time>
      </trkpt>
      <trkpt lat="43.65807" lon="3.30426">
        <ele>229.41174316406</ele>
        <time>2015-10-04T08:11:04Z</time>
      </trkpt>
      <trkpt lat="43.65843" lon="3.30437">
        <ele>232.29577636719</ele>
        <time>2015-10-04T08:11:25Z</time>
      </trkpt>
      <trkpt lat="43.65872" lon="3.30445">
        <ele>234.69909667969</ele>
        <time>2015-10-04T08:11:43Z</time>
      </trkpt>
      <trkpt lat="43.65915" lon="3.30429">
        <ele>241.42822265625</ele>
        <time>2015-10-04T08:12:14Z</time>
      </trkpt>
      <trkpt lat="43.65916" lon="3.30428">
        <ele>241.42822265625</ele>
        <time>2015-10-04T08:12:15Z</time>
      </trkpt>
      <trkpt lat="43.65931" lon="3.30423">
        <ele>245.2734375</ele>
        <time>2015-10-04T08:12:26Z</time>
      </trkpt>
      <trkpt lat="43.65933" lon="3.30422">
        <ele>245.2734375</ele>
        <time>2015-10-04T08:12:27Z</time>
      </trkpt>
      <trkpt lat="43.65939" lon="3.30419">
        <ele>246.71545410156</ele>
        <time>2015-10-04T08:12:33Z</time>
      </trkpt>
      <trkpt lat="43.65942" lon="3.30416">
        <ele>247.6767578125</ele>
        <time>2015-10-04T08:17:08Z</time>
      </trkpt>
      <trkpt lat="43.65967" lon="3.30396">
        <ele>252.00280761719</ele>
        <time>2015-10-04T08:24:10Z</time>
      </trkpt>
      <trkpt lat="43.65969" lon="3.30396">
        <ele>252.00280761719</ele>
        <time>2015-10-04T08:24:11Z</time>
      </trkpt>
      <trkpt lat="43.66007" lon="3.30384">
        <ele>257.2900390625</ele>
        <time>2015-10-04T08:24:34Z</time>
      </trkpt>
      <trkpt lat="43.66063" lon="3.30338">
        <ele>259.693359375</ele>
        <time>2015-10-04T08:25:17Z</time>
      </trkpt>
      <trkpt lat="43.66064" lon="3.30334">
        <ele>259.693359375</ele>
        <time>2015-10-04T08:25:19Z</time>
      </trkpt>
      <trkpt lat="43.66087" lon="3.30321">
        <ele>261.61596679688</ele>
        <time>2015-10-04T08:25:34Z</time>
      </trkpt>
      <trkpt lat="43.66117" lon="3.30304">
        <ele>265.46130371094</ele>
        <time>2015-10-04T08:25:53Z</time>
      </trkpt>
      <trkpt lat="43.66126" lon="3.30296">
        <ele>265.46130371094</ele>
        <time>2015-10-04T08:25:59Z</time>
      </trkpt>
      <trkpt lat="43.66169" lon="3.30253">
        <ele>268.34509277344</ele>
        <time>2015-10-04T08:26:38Z</time>
      </trkpt>
      <trkpt lat="43.66182" lon="3.30201">
        <ele>272.67114257812</ele>
        <time>2015-10-04T08:27:03Z</time>
      </trkpt>
      <trkpt lat="43.66218" lon="3.30175">
        <ele>276.9970703125</ele>
        <time>2015-10-04T08:27:42Z</time>
      </trkpt>
      <trkpt lat="43.66245" lon="3.30201">
        <ele>276.9970703125</ele>
        <time>2015-10-04T08:27:58Z</time>
      </trkpt>
      <trkpt lat="43.66293" lon="3.30186">
        <ele>281.32299804688</ele>
        <time>2015-10-04T08:28:21Z</time>
      </trkpt>
      <trkpt lat="43.66365" lon="3.30167">
        <ele>286.61022949219</ele>
        <time>2015-10-04T08:28:57Z</time>
      </trkpt>
      <trkpt lat="43.66367" lon="3.30166">
        <ele>286.61022949219</ele>
        <time>2015-10-04T08:28:58Z</time>
      </trkpt>
      <trkpt lat="43.66375" lon="3.30163">
        <ele>287.57141113281</ele>
        <time>2015-10-04T08:29:02Z</time>
      </trkpt>
      <trkpt lat="43.66424" lon="3.30122">
        <ele>289.494140625</ele>
        <time>2015-10-04T08:29:35Z</time>
      </trkpt>
      <trkpt lat="43.66445" lon="3.30088">
        <ele>293.33935546875</ele>
        <time>2015-10-04T08:29:53Z</time>
      </trkpt>
      <trkpt lat="43.66491" lon="3.3004">
        <ele>299.58801269531</ele>
        <time>2015-10-04T08:30:27Z</time>
      </trkpt>
      <trkpt lat="43.66497" lon="3.30034">
        <ele>298.62670898438</ele>
        <time>2015-10-04T08:30:32Z</time>
      </trkpt>
      <trkpt lat="43.66517" lon="3.29989">
        <ele>302.47192382812</ele>
        <time>2015-10-04T08:30:56Z</time>
      </trkpt>
      <trkpt lat="43.66563" lon="3.29952">
        <ele>305.83666992188</ele>
        <time>2015-10-04T08:31:29Z</time>
      </trkpt>
      <trkpt lat="43.66598" lon="3.2989">
        <ele>309.68188476562</ele>
        <time>2015-10-04T08:32:05Z</time>
      </trkpt>
      <trkpt lat="43.66615" lon="3.29827">
        <ele>313.04650878906</ele>
        <time>2015-10-04T08:32:39Z</time>
      </trkpt>
      <trkpt lat="43.66608" lon="3.29789">
        <ele>314.96911621094</ele>
        <time>2015-10-04T08:32:57Z</time>
      </trkpt>
      <trkpt lat="43.66608" lon="3.29787">
        <ele>314.96911621094</ele>
        <time>2015-10-04T08:32:58Z</time>
      </trkpt>
      <trkpt lat="43.6662" lon="3.29758">
        <ele>317.37243652344</ele>
        <time>2015-10-04T08:33:15Z</time>
      </trkpt>
      <trkpt lat="43.66628" lon="3.29706">
        <ele>320.25634765625</ele>
        <time>2015-10-04T08:33:40Z</time>
      </trkpt>
      <trkpt lat="43.66648" lon="3.29608">
        <ele>316.89172363281</ele>
        <time>2015-10-04T08:34:11Z</time>
      </trkpt>
      <trkpt lat="43.66677" lon="3.29547">
        <ele>314.48840332031</ele>
        <time>2015-10-04T08:34:25Z</time>
      </trkpt>
      <trkpt lat="43.66689" lon="3.2951">
        <ele>311.6044921875</ele>
        <time>2015-10-04T08:34:30Z</time>
      </trkpt>
      <trkpt lat="43.66694" lon="3.29462">
        <ele>310.64306640625</ele>
        <time>2015-10-04T08:34:35Z</time>
      </trkpt>
      <trkpt lat="43.6671" lon="3.29412">
        <ele>313.04650878906</ele>
        <time>2015-10-04T08:35:13Z</time>
      </trkpt>
      <trkpt lat="43.66721" lon="3.2943">
        <ele>314.0078125</ele>
        <time>2015-10-04T08:35:24Z</time>
      </trkpt>
      <trkpt lat="43.66751" lon="3.29482">
        <ele>319.77563476562</ele>
        <time>2015-10-04T08:35:56Z</time>
      </trkpt>
      <trkpt lat="43.66758" lon="3.29489">
        <ele>319.77563476562</ele>
        <time>2015-10-04T08:36:00Z</time>
      </trkpt>
      <trkpt lat="43.66768" lon="3.29685">
        <ele>324.1015625</ele>
        <time>2015-10-04T08:37:01Z</time>
      </trkpt>
      <trkpt lat="43.66769" lon="3.29688">
        <ele>324.1015625</ele>
        <time>2015-10-04T08:37:02Z</time>
      </trkpt>
      <trkpt lat="43.66827" lon="3.29789">
        <ele>327.46618652344</ele>
        <time>2015-10-04T08:37:38Z</time>
      </trkpt>
      <trkpt lat="43.66828" lon="3.2979">
        <ele>327.46618652344</ele>
        <time>2015-10-04T08:37:39Z</time>
      </trkpt>
      <trkpt lat="43.6685" lon="3.29809">
        <ele>326.5048828125</ele>
        <time>2015-10-04T08:41:00Z</time>
      </trkpt>
      <trkpt lat="43.66948" lon="3.29844">
        <ele>331.79211425781</ele>
        <time>2015-10-04T08:42:42Z</time>
      </trkpt>
      <trkpt lat="43.6699" lon="3.29823">
        <ele>337.56005859375</ele>
        <time>2015-10-04T08:43:06Z</time>
      </trkpt>
      <trkpt lat="43.67036" lon="3.29827">
        <ele>338.521484375</ele>
        <time>2015-10-04T08:43:30Z</time>
      </trkpt>
      <trkpt lat="43.67099" lon="3.29874">
        <ele>341.88598632812</ele>
        <time>2015-10-04T08:43:59Z</time>
      </trkpt>
      <trkpt lat="43.67103" lon="3.29912">
        <ele>344.77001953125</ele>
        <time>2015-10-04T08:44:15Z</time>
      </trkpt>
      <trkpt lat="43.67104" lon="3.29931">
        <ele>344.77001953125</ele>
        <time>2015-10-04T08:44:23Z</time>
      </trkpt>
      <trkpt lat="43.67076" lon="3.29993">
        <ele>348.615234375</ele>
        <time>2015-10-04T08:44:50Z</time>
      </trkpt>
      <trkpt lat="43.67065" lon="3.3007">
        <ele>352.94116210938</ele>
        <time>2015-10-04T08:45:17Z</time>
      </trkpt>
      <trkpt lat="43.67001" lon="3.3019">
        <ele>356.78637695312</ele>
        <time>2015-10-04T08:46:03Z</time>
      </trkpt>
      <trkpt lat="43.66968" lon="3.30247">
        <ele>356.78637695312</ele>
        <time>2015-10-04T08:46:22Z</time>
      </trkpt>
      <trkpt lat="43.66917" lon="3.30392">
        <ele>358.708984375</ele>
        <time>2015-10-04T08:47:04Z</time>
      </trkpt>
      <trkpt lat="43.66872" lon="3.30512">
        <ele>353.90258789062</ele>
        <time>2015-10-04T08:47:31Z</time>
      </trkpt>
      <trkpt lat="43.66866" lon="3.30529">
        <ele>353.90258789062</ele>
        <time>2015-10-04T08:47:34Z</time>
      </trkpt>
      <trkpt lat="43.6683" lon="3.30628">
        <ele>359.18969726562</ele>
        <time>2015-10-04T08:48:03Z</time>
      </trkpt>
      <trkpt lat="43.66817" lon="3.30657">
        <ele>363.51574707031</ele>
        <time>2015-10-04T08:48:18Z</time>
      </trkpt>
      <trkpt lat="43.66791" lon="3.3067">
        <ele>366.88024902344</ele>
        <time>2015-10-04T08:48:38Z</time>
      </trkpt>
      <trkpt lat="43.66744" lon="3.30674">
        <ele>370.24487304688</ele>
        <time>2015-10-04T08:49:06Z</time>
      </trkpt>
      <trkpt lat="43.66689" lon="3.30691">
        <ele>374.57080078125</ele>
        <time>2015-10-04T08:49:38Z</time>
      </trkpt>
      <trkpt lat="43.66665" lon="3.30724">
        <ele>376.97424316406</ele>
        <time>2015-10-04T08:49:59Z</time>
      </trkpt>
      <trkpt lat="43.66665" lon="3.30755">
        <ele>380.33874511719</ele>
        <time>2015-10-04T08:50:13Z</time>
      </trkpt>
      <trkpt lat="43.66661" lon="3.30848">
        <ele>385.6259765625</ele>
        <time>2015-10-04T08:50:57Z</time>
      </trkpt>
      <trkpt lat="43.66685" lon="3.3089">
        <ele>388.99060058594</ele>
        <time>2015-10-04T08:51:20Z</time>
      </trkpt>
      <trkpt lat="43.66703" lon="3.30929">
        <ele>388.51000976562</ele>
        <time>2015-10-04T08:51:37Z</time>
      </trkpt>
      <trkpt lat="43.66746" lon="3.31018">
        <ele>391.87451171875</ele>
        <time>2015-10-04T08:52:23Z</time>
      </trkpt>
      <trkpt lat="43.66746" lon="3.31022">
        <ele>391.39379882812</ele>
        <time>2015-10-04T08:52:41Z</time>
      </trkpt>
      <trkpt lat="43.66741" lon="3.31033">
        <ele>390.4326171875</ele>
        <time>2015-10-04T08:53:18Z</time>
      </trkpt>
      <trkpt lat="43.66743" lon="3.31026">
        <ele>391.39379882812</ele>
        <time>2015-10-04T08:53:22Z</time>
      </trkpt>
      <trkpt lat="43.66746" lon="3.31011">
        <ele>389.95190429688</ele>
        <time>2015-10-04T08:53:28Z</time>
      </trkpt>
      <trkpt lat="43.66745" lon="3.31009">
        <ele>390.4326171875</ele>
        <time>2015-10-04T08:53:37Z</time>
      </trkpt>
      <trkpt lat="43.66712" lon="3.31116">
        <ele>392.35534667969</ele>
        <time>2015-10-04T08:55:05Z</time>
      </trkpt>
      <trkpt lat="43.66716" lon="3.31151">
        <ele>392.8359375</ele>
        <time>2015-10-04T08:55:16Z</time>
      </trkpt>
      <trkpt lat="43.66719" lon="3.31169">
        <ele>393.31652832031</ele>
        <time>2015-10-04T08:55:21Z</time>
      </trkpt>
      <trkpt lat="43.66664" lon="3.31215">
        <ele>397.64245605469</ele>
        <time>2015-10-04T08:56:11Z</time>
      </trkpt>
      <trkpt lat="43.66642" lon="3.31201">
        <ele>396.20056152344</ele>
        <time>2015-10-04T08:56:22Z</time>
      </trkpt>
      <trkpt lat="43.66576" lon="3.31127">
        <ele>399.56506347656</ele>
        <time>2015-10-04T08:56:58Z</time>
      </trkpt>
      <trkpt lat="43.66568" lon="3.31129">
        <ele>400.0458984375</ele>
        <time>2015-10-04T08:57:02Z</time>
      </trkpt>
      <trkpt lat="43.66477" lon="3.31185">
        <ele>398.60375976562</ele>
        <time>2015-10-04T08:57:35Z</time>
      </trkpt>
      <trkpt lat="43.66473" lon="3.31191">
        <ele>398.60375976562</ele>
        <time>2015-10-04T08:57:36Z</time>
      </trkpt>
      <trkpt lat="43.66458" lon="3.31212">
        <ele>397.16174316406</ele>
        <time>2015-10-04T08:57:40Z</time>
      </trkpt>
      <trkpt lat="43.6645" lon="3.31264">
        <ele>392.35534667969</ele>
        <time>2015-10-04T08:57:52Z</time>
      </trkpt>
      <trkpt lat="43.66451" lon="3.31266">
        <ele>392.35534667969</ele>
        <time>2015-10-04T09:00:03Z</time>
      </trkpt>
      <trkpt lat="43.66452" lon="3.31265">
        <ele>391.87451171875</ele>
        <time>2015-10-04T09:00:59Z</time>
      </trkpt>
      <trkpt lat="43.66498" lon="3.31299">
        <ele>387.54858398438</ele>
        <time>2015-10-04T09:01:13Z</time>
      </trkpt>
      <trkpt lat="43.66529" lon="3.31337">
        <ele>383.70324707031</ele>
        <time>2015-10-04T09:01:19Z</time>
      </trkpt>
      <trkpt lat="43.66605" lon="3.31455">
        <ele>380.33874511719</ele>
        <time>2015-10-04T09:01:35Z</time>
      </trkpt>
      <trkpt lat="43.66618" lon="3.31538">
        <ele>375.53210449219</ele>
        <time>2015-10-04T09:02:07Z</time>
      </trkpt>
      <trkpt lat="43.66582" lon="3.31517">
        <ele>371.20629882812</ele>
        <time>2015-10-04T09:02:14Z</time>
      </trkpt>
      <trkpt lat="43.66557" lon="3.31501">
        <ele>367.84155273438</ele>
        <time>2015-10-04T09:02:18Z</time>
      </trkpt>
      <trkpt lat="43.6652" lon="3.31477">
        <ele>363.51574707031</ele>
        <time>2015-10-04T09:02:24Z</time>
      </trkpt>
      <trkpt lat="43.66513" lon="3.31473">
        <ele>363.51574707031</ele>
        <time>2015-10-04T09:02:25Z</time>
      </trkpt>
      <trkpt lat="43.66481" lon="3.31459">
        <ele>357.26708984375</ele>
        <time>2015-10-04T09:02:29Z</time>
      </trkpt>
      <trkpt lat="43.66401" lon="3.3142">
        <ele>354.38317871094</ele>
        <time>2015-10-04T09:02:39Z</time>
      </trkpt>
      <trkpt lat="43.6633" lon="3.31377">
        <ele>350.53784179688</ele>
        <time>2015-10-04T09:02:49Z</time>
      </trkpt>
      <trkpt lat="43.66304" lon="3.31372">
        <ele>346.69262695312</ele>
        <time>2015-10-04T09:02:52Z</time>
      </trkpt>
      <trkpt lat="43.66295" lon="3.31372">
        <ele>346.69262695312</ele>
        <time>2015-10-04T09:02:53Z</time>
      </trkpt>
      <trkpt lat="43.66253" lon="3.31357">
        <ele>342.84729003906</ele>
        <time>2015-10-04T09:02:58Z</time>
      </trkpt>
      <trkpt lat="43.66248" lon="3.31349">
        <ele>342.36669921875</ele>
        <time>2015-10-04T09:02:59Z</time>
      </trkpt>
      <trkpt lat="43.6624" lon="3.31338">
        <ele>345.25061035156</ele>
        <time>2015-10-04T09:03:01Z</time>
      </trkpt>
      <trkpt lat="43.66227" lon="3.31326">
        <ele>341.4052734375</ele>
        <time>2015-10-04T09:03:04Z</time>
      </trkpt>
      <trkpt lat="43.6622" lon="3.31321">
        <ele>340.44409179688</ele>
        <time>2015-10-04T09:03:49Z</time>
      </trkpt>
      <trkpt lat="43.66206" lon="3.31292">
        <ele>337.07946777344</ele>
        <time>2015-10-04T09:03:56Z</time>
      </trkpt>
      <trkpt lat="43.66198" lon="3.31278">
        <ele>336.1181640625</ele>
        <time>2015-10-04T09:03:58Z</time>
      </trkpt>
      <trkpt lat="43.66186" lon="3.31252">
        <ele>333.23413085938</ele>
        <time>2015-10-04T09:04:01Z</time>
      </trkpt>
      <trkpt lat="43.66138" lon="3.31199">
        <ele>328.90832519531</ele>
        <time>2015-10-04T09:04:17Z</time>
      </trkpt>
      <trkpt lat="43.66129" lon="3.31188">
        <ele>323.62097167969</ele>
        <time>2015-10-04T09:04:19Z</time>
      </trkpt>
      <trkpt lat="43.66122" lon="3.31159">
        <ele>318.81433105469</ele>
        <time>2015-10-04T09:04:23Z</time>
      </trkpt>
      <trkpt lat="43.66121" lon="3.31142">
        <ele>314.96911621094</ele>
        <time>2015-10-04T09:04:36Z</time>
      </trkpt>
      <trkpt lat="43.6612" lon="3.31138">
        <ele>314.96911621094</ele>
        <time>2015-10-04T09:04:40Z</time>
      </trkpt>
      <trkpt lat="43.66112" lon="3.31129">
        <ele>310.16247558594</ele>
        <time>2015-10-04T09:04:43Z</time>
      </trkpt>
      <trkpt lat="43.66105" lon="3.3113">
        <ele>305.83666992188</ele>
        <time>2015-10-04T09:04:46Z</time>
      </trkpt>
      <trkpt lat="43.66102" lon="3.31133">
        <ele>305.83666992188</ele>
        <time>2015-10-04T09:04:47Z</time>
      </trkpt>
      <trkpt lat="43.66093" lon="3.31142">
        <ele>303.43322753906</ele>
        <time>2015-10-04T09:04:49Z</time>
      </trkpt>
      <trkpt lat="43.66082" lon="3.31154">
        <ele>300.54931640625</ele>
        <time>2015-10-04T09:04:51Z</time>
      </trkpt>
      <trkpt lat="43.66078" lon="3.3116">
        <ele>297.18469238281</ele>
        <time>2015-10-04T09:04:52Z</time>
      </trkpt>
      <trkpt lat="43.66072" lon="3.31167">
        <ele>297.18469238281</ele>
        <time>2015-10-04T09:04:53Z</time>
      </trkpt>
      <trkpt lat="43.66062" lon="3.31178">
        <ele>292.85876464844</ele>
        <time>2015-10-04T09:04:55Z</time>
      </trkpt>
      <trkpt lat="43.66057" lon="3.31184">
        <ele>292.85876464844</ele>
        <time>2015-10-04T09:04:56Z</time>
      </trkpt>
      <trkpt lat="43.66051" lon="3.3119">
        <ele>289.494140625</ele>
        <time>2015-10-04T09:04:57Z</time>
      </trkpt>
      <trkpt lat="43.66045" lon="3.31196">
        <ele>289.494140625</ele>
        <time>2015-10-04T09:04:58Z</time>
      </trkpt>
      <trkpt lat="43.66038" lon="3.31206">
        <ele>285.64880371094</ele>
        <time>2015-10-04T09:05:01Z</time>
      </trkpt>
      <trkpt lat="43.66032" lon="3.31223">
        <ele>284.68762207031</ele>
        <time>2015-10-04T09:05:11Z</time>
      </trkpt>
      <trkpt lat="43.66032" lon="3.31224">
        <ele>281.80358886719</ele>
        <time>2015-10-04T09:05:44Z</time>
      </trkpt>
      <trkpt lat="43.6604" lon="3.31264">
        <ele>281.80358886719</ele>
        <time>2015-10-04T09:06:00Z</time>
      </trkpt>
      <trkpt lat="43.66041" lon="3.31275">
        <ele>282.28430175781</ele>
        <time>2015-10-04T09:06:02Z</time>
      </trkpt>
      <trkpt lat="43.66038" lon="3.31314">
        <ele>276.9970703125</ele>
        <time>2015-10-04T09:06:07Z</time>
      </trkpt>
      <trkpt lat="43.66037" lon="3.31322">
        <ele>276.9970703125</ele>
        <time>2015-10-04T09:06:08Z</time>
      </trkpt>
      <trkpt lat="43.66005" lon="3.31376">
        <ele>271.22912597656</ele>
        <time>2015-10-04T09:06:20Z</time>
      </trkpt>
      <trkpt lat="43.66" lon="3.31382">
        <ele>271.22912597656</ele>
        <time>2015-10-04T09:06:21Z</time>
      </trkpt>
      <trkpt lat="43.65983" lon="3.31405">
        <ele>267.86450195312</ele>
        <time>2015-10-04T09:06:24Z</time>
      </trkpt>
      <trkpt lat="43.65978" lon="3.31412">
        <ele>264.01928710938</ele>
        <time>2015-10-04T09:06:25Z</time>
      </trkpt>
      <trkpt lat="43.65972" lon="3.31421">
        <ele>264.01928710938</ele>
        <time>2015-10-04T09:06:26Z</time>
      </trkpt>
      <trkpt lat="43.65966" lon="3.3143">
        <ele>260.17395019531</ele>
        <time>2015-10-04T09:06:27Z</time>
      </trkpt>
      <trkpt lat="43.65959" lon="3.31442">
        <ele>260.17395019531</ele>
        <time>2015-10-04T09:06:28Z</time>
      </trkpt>
      <trkpt lat="43.65942" lon="3.31465">
        <ele>253.44470214844</ele>
        <time>2015-10-04T09:06:31Z</time>
      </trkpt>
      <trkpt lat="43.65938" lon="3.31471">
        <ele>249.59948730469</ele>
        <time>2015-10-04T09:06:32Z</time>
      </trkpt>
      <trkpt lat="43.65933" lon="3.31479">
        <ele>249.59948730469</ele>
        <time>2015-10-04T09:06:33Z</time>
      </trkpt>
      <trkpt lat="43.65927" lon="3.31487">
        <ele>245.2734375</ele>
        <time>2015-10-04T09:06:34Z</time>
      </trkpt>
      <trkpt lat="43.65923" lon="3.31497">
        <ele>245.2734375</ele>
        <time>2015-10-04T09:06:35Z</time>
      </trkpt>
      <trkpt lat="43.65934" lon="3.31521">
        <ele>242.87023925781</ele>
        <time>2015-10-04T09:06:41Z</time>
      </trkpt>
      <trkpt lat="43.65954" lon="3.31527">
        <ele>239.02490234375</ele>
        <time>2015-10-04T09:06:52Z</time>
      </trkpt>
      <trkpt lat="43.65935" lon="3.3154">
        <ele>234.21838378906</ele>
        <time>2015-10-04T09:06:58Z</time>
      </trkpt>
      <trkpt lat="43.65934" lon="3.3154">
        <ele>234.21838378906</ele>
        <time>2015-10-04T09:06:59Z</time>
      </trkpt>
      <trkpt lat="43.65928" lon="3.31544">
        <ele>234.21838378906</ele>
        <time>2015-10-04T09:07:10Z</time>
      </trkpt>
      <trkpt lat="43.65917" lon="3.31551">
        <ele>230.85375976562</ele>
        <time>2015-10-04T09:07:12Z</time>
      </trkpt>
      <trkpt lat="43.65911" lon="3.31556">
        <ele>226.52783203125</ele>
        <time>2015-10-04T09:07:13Z</time>
      </trkpt>
      <trkpt lat="43.65905" lon="3.31562">
        <ele>223.64379882812</ele>
        <time>2015-10-04T09:07:14Z</time>
      </trkpt>
      <trkpt lat="43.65887" lon="3.31582">
        <ele>217.39538574219</ele>
        <time>2015-10-04T09:07:18Z</time>
      </trkpt>
      <trkpt lat="43.65869" lon="3.31596">
        <ele>211.14672851562</ele>
        <time>2015-10-04T09:07:21Z</time>
      </trkpt>
      <trkpt lat="43.65858" lon="3.31608">
        <ele>207.78210449219</ele>
        <time>2015-10-04T09:07:23Z</time>
      </trkpt>
      <trkpt lat="43.65854" lon="3.31613">
        <ele>207.78210449219</ele>
        <time>2015-10-04T09:07:24Z</time>
      </trkpt>
      <trkpt lat="43.65844" lon="3.31624">
        <ele>206.34008789062</ele>
        <time>2015-10-04T09:07:27Z</time>
      </trkpt>
      <trkpt lat="43.65842" lon="3.31658">
        <ele>200.09167480469</ele>
        <time>2015-10-04T09:07:33Z</time>
      </trkpt>
      <trkpt lat="43.65841" lon="3.31667">
        <ele>195.28491210938</ele>
        <time>2015-10-04T09:07:34Z</time>
      </trkpt>
      <trkpt lat="43.65831" lon="3.31703">
        <ele>190.958984375</ele>
        <time>2015-10-04T09:07:38Z</time>
      </trkpt>
      <trkpt lat="43.65826" lon="3.31711">
        <ele>192.40112304688</ele>
        <time>2015-10-04T09:07:44Z</time>
      </trkpt>
      <trkpt lat="43.65826" lon="3.31711">
        <ele>191.43957519531</ele>
        <time>2015-10-04T09:08:08Z</time>
      </trkpt>
      <trkpt lat="43.65813" lon="3.31725">
        <ele>184.71057128906</ele>
        <time>2015-10-04T09:08:12Z</time>
      </trkpt>
      <trkpt lat="43.65808" lon="3.31732">
        <ele>184.71057128906</ele>
        <time>2015-10-04T09:08:13Z</time>
      </trkpt>
      <trkpt lat="43.65794" lon="3.3175">
        <ele>178.94262695312</ele>
        <time>2015-10-04T09:08:15Z</time>
      </trkpt>
      <trkpt lat="43.65787" lon="3.31758">
        <ele>175.09729003906</ele>
        <time>2015-10-04T09:08:16Z</time>
      </trkpt>
      <trkpt lat="43.6578" lon="3.31767">
        <ele>175.09729003906</ele>
        <time>2015-10-04T09:08:17Z</time>
      </trkpt>
      <trkpt lat="43.65767" lon="3.31781">
        <ele>171.25207519531</ele>
        <time>2015-10-04T09:08:19Z</time>
      </trkpt>
      <trkpt lat="43.65762" lon="3.31787">
        <ele>171.25207519531</ele>
        <time>2015-10-04T09:08:20Z</time>
      </trkpt>
      <trkpt lat="43.65746" lon="3.31798">
        <ele>167.88732910156</ele>
        <time>2015-10-04T09:08:23Z</time>
      </trkpt>
      <trkpt lat="43.65716" lon="3.31815">
        <ele>166.4453125</ele>
        <time>2015-10-04T09:08:30Z</time>
      </trkpt>
      <trkpt lat="43.65677" lon="3.3183">
        <ele>165.48413085938</ele>
        <time>2015-10-04T09:10:01Z</time>
      </trkpt>
      <trkpt lat="43.65673" lon="3.31827">
        <ele>165.48413085938</ele>
        <time>2015-10-04T09:10:42Z</time>
      </trkpt>
      <trkpt lat="43.65611" lon="3.31778">
        <ele>164.04211425781</ele>
        <time>2015-10-04T09:11:23Z</time>
      </trkpt>
      <trkpt lat="43.65576" lon="3.3178">
        <ele>159.71618652344</ele>
        <time>2015-10-04T09:11:31Z</time>
      </trkpt>
      <trkpt lat="43.6557" lon="3.3178">
        <ele>159.71618652344</ele>
        <time>2015-10-04T09:11:32Z</time>
      </trkpt>
      <trkpt lat="43.65485" lon="3.31779">
        <ele>154.42895507812</ele>
        <time>2015-10-04T09:11:47Z</time>
      </trkpt>
      <trkpt lat="43.65432" lon="3.31785">
        <ele>152.50634765625</ele>
        <time>2015-10-04T09:12:06Z</time>
      </trkpt>
      <trkpt lat="43.65413" lon="3.31822">
        <ele>152.98693847656</ele>
        <time>2015-10-04T09:12:23Z</time>
      </trkpt>
      <trkpt lat="43.65413" lon="3.31836">
        <ele>152.50634765625</ele>
        <time>2015-10-04T09:12:28Z</time>
      </trkpt>
      <trkpt lat="43.65406" lon="3.31871">
        <ele>151.544921875</ele>
        <time>2015-10-04T09:12:37Z</time>
      </trkpt>
      <trkpt lat="43.65409" lon="3.31894">
        <ele>148.66101074219</ele>
        <time>2015-10-04T09:12:49Z</time>
      </trkpt>
      <trkpt lat="43.6543" lon="3.31948">
        <ele>150.58361816406</ele>
        <time>2015-10-04T09:13:09Z</time>
      </trkpt>
      <trkpt lat="43.65418" lon="3.32074">
        <ele>149.1416015625</ele>
        <time>2015-10-04T09:13:44Z</time>
      </trkpt>
      <trkpt lat="43.65415" lon="3.32093">
        <ele>147.69970703125</ele>
        <time>2015-10-04T09:13:47Z</time>
      </trkpt>
      <trkpt lat="43.65397" lon="3.32339">
        <ele>145.77709960938</ele>
        <time>2015-10-04T09:14:43Z</time>
      </trkpt>
      <trkpt lat="43.65395" lon="3.32354">
        <ele>145.77709960938</ele>
        <time>2015-10-04T09:14:46Z</time>
      </trkpt>
      <trkpt lat="43.65377" lon="3.32373">
        <ele>144.81579589844</ele>
        <time>2015-10-04T09:14:51Z</time>
      </trkpt>
      <trkpt lat="43.65364" lon="3.32386">
        <ele>142.89306640625</ele>
        <time>2015-10-04T09:14:54Z</time>
      </trkpt>
      <trkpt lat="43.65352" lon="3.32397">
        <ele>141.93176269531</ele>
        <time>2015-10-04T09:14:57Z</time>
      </trkpt>
      <trkpt lat="43.65324" lon="3.32681">
        <ele>139.0478515625</ele>
        <time>2015-10-04T09:16:01Z</time>
      </trkpt>
      <trkpt lat="43.6534" lon="3.32766">
        <ele>139.52844238281</ele>
        <time>2015-10-04T09:16:19Z</time>
      </trkpt>
      <trkpt lat="43.65343" lon="3.32785">
        <ele>139.0478515625</ele>
        <time>2015-10-04T09:16:33Z</time>
      </trkpt>
      <trkpt lat="43.65368" lon="3.3283">
        <ele>141.45104980469</ele>
        <time>2015-10-04T09:16:53Z</time>
      </trkpt>
      <trkpt lat="43.65358" lon="3.32869">
        <ele>137.60583496094</ele>
        <time>2015-10-04T09:17:11Z</time>
      </trkpt>
      <trkpt lat="43.65359" lon="3.32886">
        <ele>137.12524414062</ele>
        <time>2015-10-04T09:18:26Z</time>
      </trkpt>
      <trkpt lat="43.65368" lon="3.32894">
        <ele>138.08654785156</ele>
        <time>2015-10-04T09:21:46Z</time>
      </trkpt>
      <trkpt lat="43.65396" lon="3.32932">
        <ele>136.64465332031</ele>
        <time>2015-10-04T09:22:00Z</time>
      </trkpt>
      <trkpt lat="43.65484" lon="3.33001">
        <ele>140.00915527344</ele>
        <time>2015-10-04T09:22:32Z</time>
      </trkpt>
      <trkpt lat="43.65489" lon="3.33004">
        <ele>140.48986816406</ele>
        <time>2015-10-04T09:22:36Z</time>
      </trkpt>
      <trkpt lat="43.65533" lon="3.33084">
        <ele>140.00915527344</ele>
        <time>2015-10-04T09:23:02Z</time>
      </trkpt>
      <trkpt lat="43.65581" lon="3.33136">
        <ele>143.37365722656</ele>
        <time>2015-10-04T09:23:31Z</time>
      </trkpt>
      <trkpt lat="43.65595" lon="3.33166">
        <ele>139.52844238281</ele>
        <time>2015-10-04T09:23:39Z</time>
      </trkpt>
      <trkpt lat="43.65623" lon="3.33193">
        <ele>139.52844238281</ele>
        <time>2015-10-04T09:23:54Z</time>
      </trkpt>
      <trkpt lat="43.65632" lon="3.33219">
        <ele>138.08654785156</ele>
        <time>2015-10-04T09:23:58Z</time>
      </trkpt>
      <trkpt lat="43.65649" lon="3.3324">
        <ele>137.60583496094</ele>
        <time>2015-10-04T09:24:02Z</time>
      </trkpt>
      <trkpt lat="43.65656" lon="3.33291">
        <ele>140.97045898438</ele>
        <time>2015-10-04T09:24:18Z</time>
      </trkpt>
      <trkpt lat="43.65754" lon="3.33404">
        <ele>140.48986816406</ele>
        <time>2015-10-04T09:25:04Z</time>
      </trkpt>
      <trkpt lat="43.65855" lon="3.33459">
        <ele>134.72192382812</ele>
        <time>2015-10-04T09:25:36Z</time>
      </trkpt>
      <trkpt lat="43.6588" lon="3.33466">
        <ele>136.16394042969</ele>
        <time>2015-10-04T09:25:46Z</time>
      </trkpt>
      <trkpt lat="43.65913" lon="3.33487">
        <ele>140.00915527344</ele>
        <time>2015-10-04T09:27:35Z</time>
      </trkpt>
      <trkpt lat="43.65917" lon="3.3349">
        <ele>138.08654785156</ele>
        <time>2015-10-04T09:27:51Z</time>
      </trkpt>
      <trkpt lat="43.65955" lon="3.33531">
        <ele>141.93176269531</ele>
        <time>2015-10-04T09:28:16Z</time>
      </trkpt>
      <trkpt lat="43.65979" lon="3.33524">
        <ele>144.81579589844</ele>
        <time>2015-10-04T09:28:32Z</time>
      </trkpt>
      <trkpt lat="43.6601" lon="3.33539">
        <ele>148.66101074219</ele>
        <time>2015-10-04T09:28:53Z</time>
      </trkpt>
      <trkpt lat="43.66043" lon="3.33543">
        <ele>147.21899414062</ele>
        <time>2015-10-04T09:29:09Z</time>
      </trkpt>
      <trkpt lat="43.66075" lon="3.3356">
        <ele>150.58361816406</ele>
        <time>2015-10-04T09:29:22Z</time>
      </trkpt>
      <trkpt lat="43.66175" lon="3.33613">
        <ele>156.83215332031</ele>
        <time>2015-10-04T09:30:07Z</time>
      </trkpt>
      <trkpt lat="43.66204" lon="3.33613">
        <ele>155.39025878906</ele>
        <time>2015-10-04T09:30:17Z</time>
      </trkpt>
      <trkpt lat="43.6633" lon="3.33688">
        <ele>152.98693847656</ele>
        <time>2015-10-04T09:30:54Z</time>
      </trkpt>
      <trkpt lat="43.66385" lon="3.33732">
        <ele>147.21899414062</ele>
        <time>2015-10-04T09:31:13Z</time>
      </trkpt>
      <trkpt lat="43.66371" lon="3.33767">
        <ele>145.29638671875</ele>
        <time>2015-10-04T09:31:17Z</time>
      </trkpt>
      <trkpt lat="43.66364" lon="3.338">
        <ele>141.93176269531</ele>
        <time>2015-10-04T09:31:20Z</time>
      </trkpt>
      <trkpt lat="43.66331" lon="3.33844">
        <ele>140.48986816406</ele>
        <time>2015-10-04T09:31:26Z</time>
      </trkpt>
      <trkpt lat="43.66232" lon="3.33958">
        <ele>139.52844238281</ele>
        <time>2015-10-04T09:31:54Z</time>
      </trkpt>
      <trkpt lat="43.66237" lon="3.33995">
        <ele>143.37365722656</ele>
        <time>2015-10-04T09:32:18Z</time>
      </trkpt>
      <trkpt lat="43.66306" lon="3.33981">
        <ele>146.73840332031</ele>
        <time>2015-10-04T09:32:52Z</time>
      </trkpt>
      <trkpt lat="43.66352" lon="3.33956">
        <ele>151.06420898438</ele>
        <time>2015-10-04T09:33:18Z</time>
      </trkpt>
      <trkpt lat="43.66377" lon="3.33947">
        <ele>151.06420898438</ele>
        <time>2015-10-04T09:33:29Z</time>
      </trkpt>
      <trkpt lat="43.66393" lon="3.3395">
        <ele>147.69970703125</ele>
        <time>2015-10-04T09:33:32Z</time>
      </trkpt>
      <trkpt lat="43.66401" lon="3.33941">
        <ele>147.69970703125</ele>
        <time>2015-10-04T09:33:34Z</time>
      </trkpt>
      <trkpt lat="43.66412" lon="3.33919">
        <ele>152.02575683594</ele>
        <time>2015-10-04T09:33:42Z</time>
      </trkpt>
      <trkpt lat="43.66422" lon="3.33896">
        <ele>155.87097167969</ele>
        <time>2015-10-04T09:33:53Z</time>
      </trkpt>
      <trkpt lat="43.66423" lon="3.33895">
        <ele>155.87097167969</ele>
        <time>2015-10-04T09:33:54Z</time>
      </trkpt>
      <trkpt lat="43.66516" lon="3.33842">
        <ele>160.67749023438</ele>
        <time>2015-10-04T09:34:40Z</time>
      </trkpt>
      <trkpt lat="43.66535" lon="3.33829">
        <ele>164.52270507812</ele>
        <time>2015-10-04T09:34:56Z</time>
      </trkpt>
      <trkpt lat="43.66537" lon="3.33827">
        <ele>163.5615234375</ele>
        <time>2015-10-04T09:34:58Z</time>
      </trkpt>
      <trkpt lat="43.6655" lon="3.3383">
        <ele>166.92602539062</ele>
        <time>2015-10-04T09:35:09Z</time>
      </trkpt>
      <trkpt lat="43.66563" lon="3.33828">
        <ele>169.81005859375</ele>
        <time>2015-10-04T09:35:18Z</time>
      </trkpt>
      <trkpt lat="43.66601" lon="3.33823">
        <ele>174.61657714844</ele>
        <time>2015-10-04T09:35:47Z</time>
      </trkpt>
      <trkpt lat="43.66639" lon="3.3382">
        <ele>179.42321777344</ele>
        <time>2015-10-04T09:36:15Z</time>
      </trkpt>
      <trkpt lat="43.66644" lon="3.33821">
        <ele>178.94262695312</ele>
        <time>2015-10-04T09:36:18Z</time>
      </trkpt>
      <trkpt lat="43.66661" lon="3.33798">
        <ele>180.865234375</ele>
        <time>2015-10-04T09:36:32Z</time>
      </trkpt>
      <trkpt lat="43.66696" lon="3.33742">
        <ele>184.22985839844</ele>
        <time>2015-10-04T09:37:07Z</time>
      </trkpt>
      <trkpt lat="43.66726" lon="3.3371">
        <ele>186.63317871094</ele>
        <time>2015-10-04T09:39:17Z</time>
      </trkpt>
      <trkpt lat="43.66742" lon="3.33695">
        <ele>182.78784179688</ele>
        <time>2015-10-04T09:40:20Z</time>
      </trkpt>
      <trkpt lat="43.66747" lon="3.3369">
        <ele>182.78784179688</ele>
        <time>2015-10-04T09:40:21Z</time>
      </trkpt>
      <trkpt lat="43.66758" lon="3.3368">
        <ele>180.38452148438</ele>
        <time>2015-10-04T09:40:23Z</time>
      </trkpt>
      <trkpt lat="43.66776" lon="3.33643">
        <ele>180.38452148438</ele>
        <time>2015-10-04T09:40:33Z</time>
      </trkpt>
      <trkpt lat="43.66781" lon="3.33591">
        <ele>179.42321777344</ele>
        <time>2015-10-04T09:40:46Z</time>
      </trkpt>
      <trkpt lat="43.66832" lon="3.33564">
        <ele>183.26843261719</ele>
        <time>2015-10-04T09:41:03Z</time>
      </trkpt>
      <trkpt lat="43.67011" lon="3.33566">
        <ele>180.865234375</ele>
        <time>2015-10-04T09:42:01Z</time>
      </trkpt>
      <trkpt lat="43.67017" lon="3.33566">
        <ele>180.865234375</ele>
        <time>2015-10-04T09:42:15Z</time>
      </trkpt>
      <trkpt lat="43.6703" lon="3.33544">
        <ele>175.09729003906</ele>
        <time>2015-10-04T09:42:19Z</time>
      </trkpt>
      <trkpt lat="43.67035" lon="3.33534">
        <ele>175.09729003906</ele>
        <time>2015-10-04T09:42:20Z</time>
      </trkpt>
      <trkpt lat="43.67064" lon="3.33523">
        <ele>169.81005859375</ele>
        <time>2015-10-04T09:42:24Z</time>
      </trkpt>
      <trkpt lat="43.67072" lon="3.33522">
        <ele>167.88732910156</ele>
        <time>2015-10-04T09:42:25Z</time>
      </trkpt>
      <trkpt lat="43.67084" lon="3.33523">
        <ele>167.88732910156</ele>
        <time>2015-10-04T09:42:27Z</time>
      </trkpt>
      <trkpt lat="43.67145" lon="3.33507">
        <ele>163.08081054688</ele>
        <time>2015-10-04T09:42:36Z</time>
      </trkpt>
      <trkpt lat="43.67172" lon="3.33495">
        <ele>159.71618652344</ele>
        <time>2015-10-04T09:42:40Z</time>
      </trkpt>
      <trkpt lat="43.67181" lon="3.3349">
        <ele>157.79357910156</ele>
        <time>2015-10-04T09:42:42Z</time>
      </trkpt>
      <trkpt lat="43.6723" lon="3.33524">
        <ele>158.27416992188</ele>
        <time>2015-10-04T09:43:05Z</time>
      </trkpt>
      <trkpt lat="43.67265" lon="3.33506">
        <ele>151.544921875</ele>
        <time>2015-10-04T09:43:13Z</time>
      </trkpt>
      <trkpt lat="43.67352" lon="3.33599">
        <ele>152.98693847656</ele>
        <time>2015-10-04T09:43:42Z</time>
      </trkpt>
      <trkpt lat="43.67355" lon="3.33606">
        <ele>152.98693847656</ele>
        <time>2015-10-04T09:43:44Z</time>
      </trkpt>
      <trkpt lat="43.67382" lon="3.33651">
        <ele>157.31286621094</ele>
        <time>2015-10-04T09:44:27Z</time>
      </trkpt>
      <trkpt lat="43.67385" lon="3.3365">
        <ele>157.79357910156</ele>
        <time>2015-10-04T09:44:55Z</time>
      </trkpt>
      <trkpt lat="43.67396" lon="3.33643">
        <ele>153.94836425781</ele>
        <time>2015-10-04T09:44:59Z</time>
      </trkpt>
      <trkpt lat="43.67427" lon="3.33636">
        <ele>149.62231445312</ele>
        <time>2015-10-04T09:45:04Z</time>
      </trkpt>
      <trkpt lat="43.67449" lon="3.3364">
        <ele>144.81579589844</ele>
        <time>2015-10-04T09:45:08Z</time>
      </trkpt>
      <trkpt lat="43.67455" lon="3.33639">
        <ele>144.81579589844</ele>
        <time>2015-10-04T09:45:09Z</time>
      </trkpt>
      <trkpt lat="43.6747" lon="3.33628">
        <ele>142.89306640625</ele>
        <time>2015-10-04T09:45:12Z</time>
      </trkpt>
      <trkpt lat="43.67496" lon="3.33633">
        <ele>140.97045898438</ele>
        <time>2015-10-04T09:45:17Z</time>
      </trkpt>
      <trkpt lat="43.67507" lon="3.33667">
        <ele>145.29638671875</ele>
        <time>2015-10-04T09:45:29Z</time>
      </trkpt>
      <trkpt lat="43.67528" lon="3.33719">
        <ele>141.45104980469</ele>
        <time>2015-10-04T09:45:43Z</time>
      </trkpt>
      <trkpt lat="43.67539" lon="3.33746">
        <ele>145.29638671875</ele>
        <time>2015-10-04T09:45:51Z</time>
      </trkpt>
      <trkpt lat="43.67538" lon="3.33767">
        <ele>148.66101074219</ele>
        <time>2015-10-04T09:46:02Z</time>
      </trkpt>
      <trkpt lat="43.6754" lon="3.33773">
        <ele>149.62231445312</ele>
        <time>2015-10-04T09:46:06Z</time>
      </trkpt>
      <trkpt lat="43.67548" lon="3.33792">
        <ele>151.544921875</ele>
        <time>2015-10-04T09:46:18Z</time>
      </trkpt>
      <trkpt lat="43.67565" lon="3.33862">
        <ele>154.90954589844</ele>
        <time>2015-10-04T09:46:50Z</time>
      </trkpt>
      <trkpt lat="43.67565" lon="3.33892">
        <ele>159.23547363281</ele>
        <time>2015-10-04T09:47:09Z</time>
      </trkpt>
      <trkpt lat="43.67569" lon="3.33931">
        <ele>157.79357910156</ele>
        <time>2015-10-04T09:47:30Z</time>
      </trkpt>
      <trkpt lat="43.67573" lon="3.33947">
        <ele>157.79357910156</ele>
        <time>2015-10-04T09:47:37Z</time>
      </trkpt>
      <trkpt lat="43.6758" lon="3.33971">
        <ele>160.67749023438</ele>
        <time>2015-10-04T09:50:18Z</time>
      </trkpt>
      <trkpt lat="43.67584" lon="3.33982">
        <ele>159.23547363281</ele>
        <time>2015-10-04T09:54:26Z</time>
      </trkpt>
      <trkpt lat="43.67608" lon="3.34013">
        <ele>154.90954589844</ele>
        <time>2015-10-04T09:54:31Z</time>
      </trkpt>
      <trkpt lat="43.67621" lon="3.34032">
        <ele>150.10302734375</ele>
        <time>2015-10-04T09:54:33Z</time>
      </trkpt>
      <trkpt lat="43.67627" lon="3.34041">
        <ele>150.10302734375</ele>
        <time>2015-10-04T09:54:34Z</time>
      </trkpt>
      <trkpt lat="43.67637" lon="3.34059">
        <ele>149.62231445312</ele>
        <time>2015-10-04T09:54:36Z</time>
      </trkpt>
      <trkpt lat="43.67713" lon="3.34102">
        <ele>142.41247558594</ele>
        <time>2015-10-04T09:54:50Z</time>
      </trkpt>
      <trkpt lat="43.67717" lon="3.34113">
        <ele>138.56726074219</ele>
        <time>2015-10-04T09:54:51Z</time>
      </trkpt>
      <trkpt lat="43.67755" lon="3.34181">
        <ele>133.27990722656</ele>
        <time>2015-10-04T09:55:01Z</time>
      </trkpt>
      <trkpt lat="43.67757" lon="3.34191">
        <ele>132.31860351562</ele>
        <time>2015-10-04T09:55:02Z</time>
      </trkpt>
      <trkpt lat="43.6778" lon="3.34233">
        <ele>128.9541015625</ele>
        <time>2015-10-04T09:55:07Z</time>
      </trkpt>
      <trkpt lat="43.67791" lon="3.34305">
        <ele>123.18615722656</ele>
        <time>2015-10-04T09:55:14Z</time>
      </trkpt>
      <trkpt lat="43.67791" lon="3.34315">
        <ele>123.18615722656</ele>
        <time>2015-10-04T09:55:15Z</time>
      </trkpt>
      <trkpt lat="43.67792" lon="3.34347">
        <ele>121.744140625</ele>
        <time>2015-10-04T09:55:18Z</time>
      </trkpt>
      <trkpt lat="43.67773" lon="3.34455">
        <ele>125.10876464844</ele>
        <time>2015-10-04T09:55:42Z</time>
      </trkpt>
      <trkpt lat="43.67756" lon="3.34493">
        <ele>128.9541015625</ele>
        <time>2015-10-04T09:57:27Z</time>
      </trkpt>
      <trkpt lat="43.6774" lon="3.34496">
        <ele>129.43469238281</ele>
        <time>2015-10-04T09:57:34Z</time>
      </trkpt>
      <trkpt lat="43.67695" lon="3.34519">
        <ele>129.43469238281</ele>
        <time>2015-10-04T09:57:55Z</time>
      </trkpt>
      <trkpt lat="43.67643" lon="3.34583">
        <ele>131.35729980469</ele>
        <time>2015-10-04T09:58:29Z</time>
      </trkpt>
      <trkpt lat="43.6764" lon="3.34587">
        <ele>132.79931640625</ele>
        <time>2015-10-04T09:58:31Z</time>
      </trkpt>
      <trkpt lat="43.67578" lon="3.34625">
        <ele>135.20251464844</ele>
        <time>2015-10-04T09:59:04Z</time>
      </trkpt>
      <trkpt lat="43.67519" lon="3.34742">
        <ele>138.08654785156</ele>
        <time>2015-10-04T09:59:44Z</time>
      </trkpt>
      <trkpt lat="43.67514" lon="3.34795">
        <ele>136.16394042969</ele>
        <time>2015-10-04T09:59:53Z</time>
      </trkpt>
      <trkpt lat="43.6747" lon="3.34902">
        <ele>139.52844238281</ele>
        <time>2015-10-04T10:00:25Z</time>
      </trkpt>
      <trkpt lat="43.67457" lon="3.34919">
        <ele>142.41247558594</ele>
        <time>2015-10-04T10:00:35Z</time>
      </trkpt>
      <trkpt lat="43.67437" lon="3.34945">
        <ele>141.45104980469</ele>
        <time>2015-10-04T10:00:48Z</time>
      </trkpt>
      <trkpt lat="43.67404" lon="3.34996">
        <ele>141.45104980469</ele>
        <time>2015-10-04T10:01:07Z</time>
      </trkpt>
      <trkpt lat="43.67351" lon="3.35045">
        <ele>138.08654785156</ele>
        <time>2015-10-04T10:01:24Z</time>
      </trkpt>
      <trkpt lat="43.6719" lon="3.35234">
        <ele>139.52844238281</ele>
        <time>2015-10-04T10:02:30Z</time>
      </trkpt>
      <trkpt lat="43.6717" lon="3.35246">
        <ele>140.97045898438</ele>
        <time>2015-10-04T10:02:40Z</time>
      </trkpt>
      <trkpt lat="43.67156" lon="3.35256">
        <ele>143.37365722656</ele>
        <time>2015-10-04T10:03:24Z</time>
      </trkpt>
      <trkpt lat="43.67155" lon="3.35256">
        <ele>143.37365722656</ele>
        <time>2015-10-04T10:04:35Z</time>
      </trkpt>
      <trkpt lat="43.67127" lon="3.35304">
        <ele>145.77709960938</ele>
        <time>2015-10-04T10:04:55Z</time>
      </trkpt>
      <trkpt lat="43.67123" lon="3.35314">
        <ele>146.73840332031</ele>
        <time>2015-10-04T10:04:59Z</time>
      </trkpt>
      <trkpt lat="43.67115" lon="3.3533">
        <ele>146.2578125</ele>
        <time>2015-10-04T10:05:12Z</time>
      </trkpt>
      <trkpt lat="43.67094" lon="3.35331">
        <ele>146.2578125</ele>
        <time>2015-10-04T10:05:33Z</time>
      </trkpt>
      <trkpt lat="43.67095" lon="3.35344">
        <ele>143.85437011719</ele>
        <time>2015-10-04T10:05:42Z</time>
      </trkpt>
      <trkpt lat="43.67091" lon="3.35353">
        <ele>140.48986816406</ele>
        <time>2015-10-04T10:05:47Z</time>
      </trkpt>
      <trkpt lat="43.67087" lon="3.35377">
        <ele>138.56726074219</ele>
        <time>2015-10-04T10:05:58Z</time>
      </trkpt>
      <trkpt lat="43.67061" lon="3.35406">
        <ele>138.56726074219</ele>
        <time>2015-10-04T10:06:11Z</time>
      </trkpt>
      <trkpt lat="43.67036" lon="3.35455">
        <ele>140.48986816406</ele>
        <time>2015-10-04T10:06:38Z</time>
      </trkpt>
      <trkpt lat="43.67024" lon="3.35471">
        <ele>137.12524414062</ele>
        <time>2015-10-04T10:06:43Z</time>
      </trkpt>
      <trkpt lat="43.66989" lon="3.35517">
        <ele>136.16394042969</ele>
        <time>2015-10-04T10:07:09Z</time>
      </trkpt>
      <trkpt lat="43.66962" lon="3.35524">
        <ele>137.12524414062</ele>
        <time>2015-10-04T10:09:05Z</time>
      </trkpt>
      <trkpt lat="43.66867" lon="3.35663">
        <ele>139.52844238281</ele>
        <time>2015-10-04T10:10:10Z</time>
      </trkpt>
      <trkpt lat="43.66851" lon="3.35691">
        <ele>137.12524414062</ele>
        <time>2015-10-04T10:12:10Z</time>
      </trkpt>
      <trkpt lat="43.66845" lon="3.357">
        <ele>136.16394042969</ele>
        <time>2015-10-04T10:12:12Z</time>
      </trkpt>
      <trkpt lat="43.66827" lon="3.35723">
        <ele>138.56726074219</ele>
        <time>2015-10-04T10:12:18Z</time>
      </trkpt>
      <trkpt lat="43.66789" lon="3.35748">
        <ele>138.56726074219</ele>
        <time>2015-10-04T10:12:26Z</time>
      </trkpt>
      <trkpt lat="43.66768" lon="3.35759">
        <ele>140.97045898438</ele>
        <time>2015-10-04T10:12:33Z</time>
      </trkpt>
      <trkpt lat="43.66732" lon="3.3581">
        <ele>135.68310546875</ele>
        <time>2015-10-04T10:12:47Z</time>
      </trkpt>
      <trkpt lat="43.66727" lon="3.35817">
        <ele>136.64465332031</ele>
        <time>2015-10-04T10:12:48Z</time>
      </trkpt>
      <trkpt lat="43.66718" lon="3.35829">
        <ele>137.60583496094</ele>
        <time>2015-10-04T10:12:50Z</time>
      </trkpt>
      <trkpt lat="43.66591" lon="3.36012">
        <ele>138.56726074219</ele>
        <time>2015-10-04T10:13:44Z</time>
      </trkpt>
      <trkpt lat="43.66621" lon="3.36191">
        <ele>137.60583496094</ele>
        <time>2015-10-04T10:14:27Z</time>
      </trkpt>
      <trkpt lat="43.66629" lon="3.36212">
        <ele>137.60583496094</ele>
        <time>2015-10-04T10:14:31Z</time>
      </trkpt>
      <trkpt lat="43.66633" lon="3.36222">
        <ele>138.08654785156</ele>
        <time>2015-10-04T10:14:33Z</time>
      </trkpt>
      <trkpt lat="43.66636" lon="3.36251">
        <ele>139.52844238281</ele>
        <time>2015-10-04T10:14:39Z</time>
      </trkpt>
      <trkpt lat="43.66605" lon="3.36276">
        <ele>141.45104980469</ele>
        <time>2015-10-04T10:15:25Z</time>
      </trkpt>
      <trkpt lat="43.66565" lon="3.36287">
        <ele>140.48986816406</ele>
        <time>2015-10-04T10:15:37Z</time>
      </trkpt>
      <trkpt lat="43.66554" lon="3.3642">
        <ele>137.60583496094</ele>
        <time>2015-10-04T10:16:03Z</time>
      </trkpt>
      <trkpt lat="43.66477" lon="3.36605">
        <ele>136.64465332031</ele>
        <time>2015-10-04T10:16:44Z</time>
      </trkpt>
      <trkpt lat="43.66451" lon="3.36686">
        <ele>141.93176269531</ele>
        <time>2015-10-04T10:17:05Z</time>
      </trkpt>
      <trkpt lat="43.66449" lon="3.36693">
        <ele>141.93176269531</ele>
        <time>2015-10-04T10:17:07Z</time>
      </trkpt>
      <trkpt lat="43.66447" lon="3.36706">
        <ele>141.45104980469</ele>
        <time>2015-10-04T10:21:23Z</time>
      </trkpt>
      <trkpt lat="43.66424" lon="3.36776">
        <ele>144.33520507812</ele>
        <time>2015-10-04T10:23:46Z</time>
      </trkpt>
      <trkpt lat="43.66424" lon="3.36812">
        <ele>140.97045898438</ele>
        <time>2015-10-04T10:23:51Z</time>
      </trkpt>
      <trkpt lat="43.6638" lon="3.36913">
        <ele>143.37365722656</ele>
        <time>2015-10-04T10:24:12Z</time>
      </trkpt>
      <trkpt lat="43.66334" lon="3.37021">
        <ele>140.00915527344</ele>
        <time>2015-10-04T10:24:33Z</time>
      </trkpt>
      <trkpt lat="43.66292" lon="3.37077">
        <ele>144.33520507812</ele>
        <time>2015-10-04T10:24:54Z</time>
      </trkpt>
      <trkpt lat="43.66284" lon="3.37094">
        <ele>142.41247558594</ele>
        <time>2015-10-04T10:25:00Z</time>
      </trkpt>
      <trkpt lat="43.66288" lon="3.37185">
        <ele>145.77709960938</ele>
        <time>2015-10-04T10:26:55Z</time>
      </trkpt>
      <trkpt lat="43.66281" lon="3.3722">
        <ele>142.41247558594</ele>
        <time>2015-10-04T10:27:01Z</time>
      </trkpt>
      <trkpt lat="43.66277" lon="3.37255">
        <ele>140.00915527344</ele>
        <time>2015-10-04T10:27:06Z</time>
      </trkpt>
      <trkpt lat="43.6626" lon="3.37437">
        <ele>139.52844238281</ele>
        <time>2015-10-04T10:27:39Z</time>
      </trkpt>
      <trkpt lat="43.66273" lon="3.37492">
        <ele>138.56726074219</ele>
        <time>2015-10-04T10:27:51Z</time>
      </trkpt>
      <trkpt lat="43.6627" lon="3.3751">
        <ele>139.0478515625</ele>
        <time>2015-10-04T10:27:57Z</time>
      </trkpt>
      <trkpt lat="43.66283" lon="3.37555">
        <ele>137.60583496094</ele>
        <time>2015-10-04T10:28:07Z</time>
      </trkpt>
      <trkpt lat="43.66271" lon="3.37648">
        <ele>140.00915527344</ele>
        <time>2015-10-04T10:28:27Z</time>
      </trkpt>
      <trkpt lat="43.66251" lon="3.37783">
        <ele>140.97045898438</ele>
        <time>2015-10-04T10:29:05Z</time>
      </trkpt>
      <trkpt lat="43.66246" lon="3.37791">
        <ele>141.45104980469</ele>
        <time>2015-10-04T10:29:13Z</time>
      </trkpt>
      <trkpt lat="43.66233" lon="3.37809">
        <ele>142.41247558594</ele>
        <time>2015-10-04T10:29:22Z</time>
      </trkpt>
      <trkpt lat="43.66207" lon="3.37915">
        <ele>138.08654785156</ele>
        <time>2015-10-04T10:29:46Z</time>
      </trkpt>
      <trkpt lat="43.6621" lon="3.37933">
        <ele>139.0478515625</ele>
        <time>2015-10-04T10:29:50Z</time>
      </trkpt>
      <trkpt lat="43.66181" lon="3.37946">
        <ele>142.41247558594</ele>
        <time>2015-10-04T10:30:04Z</time>
      </trkpt>
      <trkpt lat="43.66173" lon="3.3798">
        <ele>145.77709960938</ele>
        <time>2015-10-04T10:30:23Z</time>
      </trkpt>
      <trkpt lat="43.66164" lon="3.38031">
        <ele>149.1416015625</ele>
        <time>2015-10-04T10:30:43Z</time>
      </trkpt>
      <trkpt lat="43.66165" lon="3.38033">
        <ele>149.1416015625</ele>
        <time>2015-10-04T10:30:44Z</time>
      </trkpt>
      <trkpt lat="43.66177" lon="3.38087">
        <ele>150.10302734375</ele>
        <time>2015-10-04T10:31:51Z</time>
      </trkpt>
      <trkpt lat="43.66179" lon="3.381">
        <ele>150.10302734375</ele>
        <time>2015-10-04T10:31:55Z</time>
      </trkpt>
      <trkpt lat="43.66184" lon="3.38116">
        <ele>150.10302734375</ele>
        <time>2015-10-04T10:32:02Z</time>
      </trkpt>
      <trkpt lat="43.66156" lon="3.38179">
        <ele>154.42895507812</ele>
        <time>2015-10-04T10:32:34Z</time>
      </trkpt>
      <trkpt lat="43.66152" lon="3.38187">
        <ele>152.98693847656</ele>
        <time>2015-10-04T10:32:36Z</time>
      </trkpt>
      <trkpt lat="43.6615" lon="3.38275">
        <ele>151.06420898438</ele>
        <time>2015-10-04T10:32:53Z</time>
      </trkpt>
      <trkpt lat="43.66144" lon="3.38292">
        <ele>149.62231445312</ele>
        <time>2015-10-04T10:32:56Z</time>
      </trkpt>
      <trkpt lat="43.66139" lon="3.38343">
        <ele>145.77709960938</ele>
        <time>2015-10-04T10:33:04Z</time>
      </trkpt>
      <trkpt lat="43.6612" lon="3.38383">
        <ele>142.41247558594</ele>
        <time>2015-10-04T10:33:13Z</time>
      </trkpt>
      <trkpt lat="43.661" lon="3.38436">
        <ele>141.93176269531</ele>
        <time>2015-10-04T10:34:35Z</time>
      </trkpt>
      <trkpt lat="43.66098" lon="3.38454">
        <ele>141.45104980469</ele>
        <time>2015-10-04T10:34:49Z</time>
      </trkpt>
      <trkpt lat="43.66104" lon="3.3851">
        <ele>140.00915527344</ele>
        <time>2015-10-04T10:34:58Z</time>
      </trkpt>
      <trkpt lat="43.66085" lon="3.38597">
        <ele>140.48986816406</ele>
        <time>2015-10-04T10:35:15Z</time>
      </trkpt>
      <trkpt lat="43.66071" lon="3.3871">
        <ele>144.81579589844</ele>
        <time>2015-10-04T10:35:41Z</time>
      </trkpt>
      <trkpt lat="43.6607" lon="3.38713">
        <ele>144.81579589844</ele>
        <time>2015-10-04T10:35:42Z</time>
      </trkpt>
      <trkpt lat="43.66063" lon="3.38754">
        <ele>145.77709960938</ele>
        <time>2015-10-04T10:35:55Z</time>
      </trkpt>
      <trkpt lat="43.66064" lon="3.38793">
        <ele>149.1416015625</ele>
        <time>2015-10-04T10:36:14Z</time>
      </trkpt>
      <trkpt lat="43.66067" lon="3.38797">
        <ele>149.1416015625</ele>
        <time>2015-10-04T10:37:18Z</time>
      </trkpt>
      <trkpt lat="43.66099" lon="3.38764">
        <ele>152.50634765625</ele>
        <time>2015-10-04T10:37:42Z</time>
      </trkpt>
      <trkpt lat="43.66128" lon="3.38742">
        <ele>155.87097167969</ele>
        <time>2015-10-04T10:38:07Z</time>
      </trkpt>
      <trkpt lat="43.66121" lon="3.38799">
        <ele>160.19689941406</ele>
        <time>2015-10-04T10:38:37Z</time>
      </trkpt>
      <trkpt lat="43.66121" lon="3.38803">
        <ele>160.19689941406</ele>
        <time>2015-10-04T10:38:39Z</time>
      </trkpt>
      <trkpt lat="43.66115" lon="3.38839">
        <ele>162.11950683594</ele>
        <time>2015-10-04T10:38:57Z</time>
      </trkpt>
      <trkpt lat="43.66112" lon="3.38917">
        <ele>166.4453125</ele>
        <time>2015-10-04T10:39:29Z</time>
      </trkpt>
      <trkpt lat="43.66111" lon="3.38922">
        <ele>166.4453125</ele>
        <time>2015-10-04T10:39:32Z</time>
      </trkpt>
      <trkpt lat="43.66091" lon="3.38955">
        <ele>170.29064941406</ele>
        <time>2015-10-04T10:39:51Z</time>
      </trkpt>
      <trkpt lat="43.6609" lon="3.38957">
        <ele>170.29064941406</ele>
        <time>2015-10-04T10:39:52Z</time>
      </trkpt>
      <trkpt lat="43.66088" lon="3.39013">
        <ele>176.53930664062</ele>
        <time>2015-10-04T10:40:19Z</time>
      </trkpt>
      <trkpt lat="43.66088" lon="3.39015">
        <ele>176.53930664062</ele>
        <time>2015-10-04T10:40:20Z</time>
      </trkpt>
      <trkpt lat="43.6609" lon="3.39071">
        <ele>179.42321777344</ele>
        <time>2015-10-04T10:40:46Z</time>
      </trkpt>
      <trkpt lat="43.66091" lon="3.39092">
        <ele>182.78784179688</ele>
        <time>2015-10-04T10:40:57Z</time>
      </trkpt>
      <trkpt lat="43.66092" lon="3.39102">
        <ele>183.7490234375</ele>
        <time>2015-10-04T10:41:03Z</time>
      </trkpt>
      <trkpt lat="43.66093" lon="3.39125">
        <ele>187.59436035156</ele>
        <time>2015-10-04T10:41:18Z</time>
      </trkpt>
      <trkpt lat="43.66095" lon="3.39134">
        <ele>188.55578613281</ele>
        <time>2015-10-04T10:41:23Z</time>
      </trkpt>
      <trkpt lat="43.66097" lon="3.39155">
        <ele>189.99768066406</ele>
        <time>2015-10-04T10:41:34Z</time>
      </trkpt>
      <trkpt lat="43.661" lon="3.39172">
        <ele>191.92028808594</ele>
        <time>2015-10-04T10:41:44Z</time>
      </trkpt>
      <trkpt lat="43.66113" lon="3.39205">
        <ele>194.32373046875</ele>
        <time>2015-10-04T10:42:06Z</time>
      </trkpt>
      <trkpt lat="43.66098" lon="3.39264">
        <ele>199.13012695312</ele>
        <time>2015-10-04T10:42:41Z</time>
      </trkpt>
      <trkpt lat="43.66093" lon="3.39285">
        <ele>202.49487304688</ele>
        <time>2015-10-04T10:42:54Z</time>
      </trkpt>
      <trkpt lat="43.66124" lon="3.39265">
        <ele>202.49487304688</ele>
        <time>2015-10-04T10:43:23Z</time>
      </trkpt>
      <trkpt lat="43.66129" lon="3.39258">
        <ele>202.97546386719</ele>
        <time>2015-10-04T10:43:26Z</time>
      </trkpt>
      <trkpt lat="43.66142" lon="3.39144">
        <ele>207.30139160156</ele>
        <time>2015-10-04T10:44:06Z</time>
      </trkpt>
      <trkpt lat="43.66153" lon="3.39103">
        <ele>210.18542480469</ele>
        <time>2015-10-04T10:44:23Z</time>
      </trkpt>
      <trkpt lat="43.66164" lon="3.39074">
        <ele>213.55004882812</ele>
        <time>2015-10-04T10:44:39Z</time>
      </trkpt>
      <trkpt lat="43.66166" lon="3.39071">
        <ele>213.55004882812</ele>
        <time>2015-10-04T10:44:41Z</time>
      </trkpt>
      <trkpt lat="43.66164" lon="3.39093">
        <ele>214.99194335938</ele>
        <time>2015-10-04T10:46:34Z</time>
      </trkpt>
      <trkpt lat="43.66163" lon="3.39104">
        <ele>214.51123046875</ele>
        <time>2015-10-04T10:50:08Z</time>
      </trkpt>
      <trkpt lat="43.66161" lon="3.39134">
        <ele>216.43395996094</ele>
        <time>2015-10-04T10:50:21Z</time>
      </trkpt>
      <trkpt lat="43.6617" lon="3.39219">
        <ele>220.27917480469</ele>
        <time>2015-10-04T10:50:56Z</time>
      </trkpt>
      <trkpt lat="43.66173" lon="3.39251">
        <ele>224.60522460938</ele>
        <time>2015-10-04T10:51:09Z</time>
      </trkpt>
      <trkpt lat="43.66173" lon="3.39254">
        <ele>224.60522460938</ele>
        <time>2015-10-04T10:51:10Z</time>
      </trkpt>
      <trkpt lat="43.66153" lon="3.39311">
        <ele>226.04711914062</ele>
        <time>2015-10-04T10:51:36Z</time>
      </trkpt>
      <trkpt lat="43.66125" lon="3.39371">
        <ele>228.93115234375</ele>
        <time>2015-10-04T10:52:01Z</time>
      </trkpt>
      <trkpt lat="43.661" lon="3.39431">
        <ele>229.89233398438</ele>
        <time>2015-10-04T10:52:23Z</time>
      </trkpt>
      <trkpt lat="43.66211" lon="3.39493">
        <ele>226.04711914062</ele>
        <time>2015-10-04T10:52:52Z</time>
      </trkpt>
      <trkpt lat="43.66237" lon="3.395">
        <ele>222.20178222656</ele>
        <time>2015-10-04T10:52:56Z</time>
      </trkpt>
      <trkpt lat="43.66243" lon="3.39502">
        <ele>222.20178222656</ele>
        <time>2015-10-04T10:52:57Z</time>
      </trkpt>
      <trkpt lat="43.66294" lon="3.39524">
        <ele>218.35656738281</ele>
        <time>2015-10-04T10:53:04Z</time>
      </trkpt>
      <trkpt lat="43.66301" lon="3.39526">
        <ele>218.35656738281</ele>
        <time>2015-10-04T10:53:05Z</time>
      </trkpt>
      <trkpt lat="43.66373" lon="3.39517">
        <ele>214.99194335938</ele>
        <time>2015-10-04T10:53:15Z</time>
      </trkpt>
      <trkpt lat="43.66375" lon="3.39538">
        <ele>215.47265625</ele>
        <time>2015-10-04T10:53:20Z</time>
      </trkpt>
      <trkpt lat="43.66295" lon="3.39613">
        <ele>219.31799316406</ele>
        <time>2015-10-04T10:53:48Z</time>
      </trkpt>
      <trkpt lat="43.66149" lon="3.39715">
        <ele>222.68249511719</ele>
        <time>2015-10-04T10:54:39Z</time>
      </trkpt>
      <trkpt lat="43.65946" lon="3.3989">
        <ele>224.12451171875</ele>
        <time>2015-10-04T10:55:51Z</time>
      </trkpt>
      <trkpt lat="43.65898" lon="3.40003">
        <ele>223.16320800781</ele>
        <time>2015-10-04T10:56:20Z</time>
      </trkpt>
      <trkpt lat="43.65959" lon="3.40125">
        <ele>219.79858398438</ele>
        <time>2015-10-04T10:56:47Z</time>
      </trkpt>
      <trkpt lat="43.65998" lon="3.40207">
        <ele>219.31799316406</ele>
        <time>2015-10-04T10:57:05Z</time>
      </trkpt>
      <trkpt lat="43.6602" lon="3.40285">
        <ele>219.31799316406</ele>
        <time>2015-10-04T10:57:20Z</time>
      </trkpt>
      <trkpt lat="43.66038" lon="3.40429">
        <ele>217.39538574219</ele>
        <time>2015-10-04T10:57:46Z</time>
      </trkpt>
      <trkpt lat="43.66045" lon="3.40449">
        <ele>215.47265625</ele>
        <time>2015-10-04T10:57:50Z</time>
      </trkpt>
      <trkpt lat="43.66056" lon="3.40466">
        <ele>216.43395996094</ele>
        <time>2015-10-04T10:57:54Z</time>
      </trkpt>
      <trkpt lat="43.66061" lon="3.40471">
        <ele>218.35656738281</ele>
        <time>2015-10-04T10:57:56Z</time>
      </trkpt>
      <trkpt lat="43.66067" lon="3.40475">
        <ele>216.91467285156</ele>
        <time>2015-10-04T10:57:58Z</time>
      </trkpt>
      <trkpt lat="43.66091" lon="3.40477">
        <ele>217.8759765625</ele>
        <time>2015-10-04T10:59:51Z</time>
      </trkpt>
      <trkpt lat="43.66085" lon="3.40533">
        <ele>212.58862304688</ele>
        <time>2015-10-04T11:00:01Z</time>
      </trkpt>
      <trkpt lat="43.66038" lon="3.40528">
        <ele>207.78210449219</ele>
        <time>2015-10-04T11:00:14Z</time>
      </trkpt>
      <trkpt lat="43.66025" lon="3.4051">
        <ele>203.45617675781</ele>
        <time>2015-10-04T11:00:17Z</time>
      </trkpt>
      <trkpt lat="43.66014" lon="3.40492">
        <ele>198.64953613281</ele>
        <time>2015-10-04T11:00:21Z</time>
      </trkpt>
      <trkpt lat="43.66012" lon="3.40499">
        <ele>196.72692871094</ele>
        <time>2015-10-04T11:00:26Z</time>
      </trkpt>
      <trkpt lat="43.66015" lon="3.40519">
        <ele>192.40112304688</ele>
        <time>2015-10-04T11:00:30Z</time>
      </trkpt>
      <trkpt lat="43.66015" lon="3.40522">
        <ele>192.40112304688</ele>
        <time>2015-10-04T11:00:31Z</time>
      </trkpt>
      <trkpt lat="43.66008" lon="3.4054">
        <ele>186.15246582031</ele>
        <time>2015-10-04T11:00:36Z</time>
      </trkpt>
      <trkpt lat="43.66008" lon="3.40557">
        <ele>182.78784179688</ele>
        <time>2015-10-04T11:00:40Z</time>
      </trkpt>
      <trkpt lat="43.65993" lon="3.40565">
        <ele>178.4619140625</ele>
        <time>2015-10-04T11:00:45Z</time>
      </trkpt>
      <trkpt lat="43.65985" lon="3.40569">
        <ele>175.09729003906</ele>
        <time>2015-10-04T11:00:49Z</time>
      </trkpt>
      <trkpt lat="43.65977" lon="3.40595">
        <ele>168.84875488281</ele>
        <time>2015-10-04T11:00:54Z</time>
      </trkpt>
      <trkpt lat="43.65975" lon="3.40616">
        <ele>164.52270507812</ele>
        <time>2015-10-04T11:00:58Z</time>
      </trkpt>
      <trkpt lat="43.65975" lon="3.40634">
        <ele>160.67749023438</ele>
        <time>2015-10-04T11:01:04Z</time>
      </trkpt>
      <trkpt lat="43.65982" lon="3.4065">
        <ele>158.75476074219</ele>
        <time>2015-10-04T11:01:08Z</time>
      </trkpt>
      <trkpt lat="43.66009" lon="3.40683">
        <ele>154.90954589844</ele>
        <time>2015-10-04T11:01:18Z</time>
      </trkpt>
      <trkpt lat="43.66035" lon="3.4073">
        <ele>152.02575683594</ele>
        <time>2015-10-04T11:01:29Z</time>
      </trkpt>
      <trkpt lat="43.66036" lon="3.40736">
        <ele>148.66101074219</ele>
        <time>2015-10-04T11:01:30Z</time>
      </trkpt>
      <trkpt lat="43.66047" lon="3.40761">
        <ele>144.81579589844</ele>
        <time>2015-10-04T11:01:34Z</time>
      </trkpt>
      <trkpt lat="43.6605" lon="3.40779">
        <ele>141.45104980469</ele>
        <time>2015-10-04T11:01:36Z</time>
      </trkpt>
      <trkpt lat="43.66046" lon="3.40815">
        <ele>138.08654785156</ele>
        <time>2015-10-04T11:01:40Z</time>
      </trkpt>
      <trkpt lat="43.66045" lon="3.40822">
        <ele>137.60583496094</ele>
        <time>2015-10-04T11:01:41Z</time>
      </trkpt>
      <trkpt lat="43.66036" lon="3.40852">
        <ele>132.31860351562</ele>
        <time>2015-10-04T11:01:47Z</time>
      </trkpt>
      <trkpt lat="43.66025" lon="3.40867">
        <ele>127.51196289062</ele>
        <time>2015-10-04T11:01:50Z</time>
      </trkpt>
      <trkpt lat="43.66009" lon="3.40869">
        <ele>120.78283691406</ele>
        <time>2015-10-04T11:01:55Z</time>
      </trkpt>
      <trkpt lat="43.66006" lon="3.40867">
        <ele>120.78283691406</ele>
        <time>2015-10-04T11:01:56Z</time>
      </trkpt>
      <trkpt lat="43.66002" lon="3.40851">
        <ele>122.22473144531</ele>
        <time>2015-10-04T11:06:10Z</time>
      </trkpt>
      <trkpt lat="43.66002" lon="3.40851">
        <ele>122.70544433594</ele>
        <time>2015-10-04T11:06:39Z</time>
      </trkpt>
      <trkpt lat="43.65958" lon="3.40786">
        <ele>121.26354980469</ele>
        <time>2015-10-04T11:07:12Z</time>
      </trkpt>
      <trkpt lat="43.65924" lon="3.40738">
        <ele>126.55065917969</ele>
        <time>2015-10-04T11:07:33Z</time>
      </trkpt>
      <trkpt lat="43.65923" lon="3.40735">
        <ele>126.55065917969</ele>
        <time>2015-10-04T11:07:34Z</time>
      </trkpt>
      <trkpt lat="43.65911" lon="3.40678">
        <ele>130.87670898438</ele>
        <time>2015-10-04T11:07:58Z</time>
      </trkpt>
      <trkpt lat="43.6587" lon="3.4063">
        <ele>134.2412109375</ele>
        <time>2015-10-04T11:08:28Z</time>
      </trkpt>
      <trkpt lat="43.65867" lon="3.40576">
        <ele>138.08654785156</ele>
        <time>2015-10-04T11:08:50Z</time>
      </trkpt>
      <trkpt lat="43.65863" lon="3.40541">
        <ele>141.45104980469</ele>
        <time>2015-10-04T11:09:04Z</time>
      </trkpt>
      <trkpt lat="43.65857" lon="3.40458">
        <ele>145.77709960938</ele>
        <time>2015-10-04T11:09:39Z</time>
      </trkpt>
      <trkpt lat="43.65846" lon="3.40365">
        <ele>149.62231445312</ele>
        <time>2015-10-04T11:10:15Z</time>
      </trkpt>
      <trkpt lat="43.65846" lon="3.40362">
        <ele>149.62231445312</ele>
        <time>2015-10-04T11:10:16Z</time>
      </trkpt>
      <trkpt lat="43.65824" lon="3.4027">
        <ele>154.42895507812</ele>
        <time>2015-10-04T11:10:53Z</time>
      </trkpt>
      <trkpt lat="43.65784" lon="3.40156">
        <ele>157.79357910156</ele>
        <time>2015-10-04T11:11:37Z</time>
      </trkpt>
      <trkpt lat="43.65722" lon="3.39961">
        <ele>156.3515625</ele>
        <time>2015-10-04T11:12:32Z</time>
      </trkpt>
      <trkpt lat="43.65709" lon="3.39961">
        <ele>152.98693847656</ele>
        <time>2015-10-04T11:12:37Z</time>
      </trkpt>
      <trkpt lat="43.65708" lon="3.39964">
        <ele>152.98693847656</ele>
        <time>2015-10-04T11:12:38Z</time>
      </trkpt>
      <trkpt lat="43.65711" lon="3.39974">
        <ele>153.46765136719</ele>
        <time>2015-10-04T11:12:52Z</time>
      </trkpt>
      <trkpt lat="43.65716" lon="3.40028">
        <ele>148.66101074219</ele>
        <time>2015-10-04T11:13:05Z</time>
      </trkpt>
      <trkpt lat="43.65661" lon="3.40113">
        <ele>147.21899414062</ele>
        <time>2015-10-04T11:13:24Z</time>
      </trkpt>
      <trkpt lat="43.65497" lon="3.40344">
        <ele>147.21899414062</ele>
        <time>2015-10-04T11:14:29Z</time>
      </trkpt>
      <trkpt lat="43.65456" lon="3.40297">
        <ele>151.544921875</ele>
        <time>2015-10-04T11:14:49Z</time>
      </trkpt>
      <trkpt lat="43.65454" lon="3.40294">
        <ele>151.544921875</ele>
        <time>2015-10-04T11:14:50Z</time>
      </trkpt>
      <trkpt lat="43.6541" lon="3.4025">
        <ele>155.39025878906</ele>
        <time>2015-10-04T11:15:06Z</time>
      </trkpt>
      <trkpt lat="43.65298" lon="3.40197">
        <ele>160.67749023438</ele>
        <time>2015-10-04T11:15:40Z</time>
      </trkpt>
      <trkpt lat="43.65277" lon="3.40161">
        <ele>160.19689941406</ele>
        <time>2015-10-04T11:15:50Z</time>
      </trkpt>
      <trkpt lat="43.65254" lon="3.4005">
        <ele>165.48413085938</ele>
        <time>2015-10-04T11:16:17Z</time>
      </trkpt>
      <trkpt lat="43.65209" lon="3.40002">
        <ele>168.84875488281</ele>
        <time>2015-10-04T11:16:37Z</time>
      </trkpt>
      <trkpt lat="43.65132" lon="3.39897">
        <ele>172.21325683594</ele>
        <time>2015-10-04T11:17:23Z</time>
      </trkpt>
      <trkpt lat="43.65151" lon="3.39726">
        <ele>174.13586425781</ele>
        <time>2015-10-04T11:17:57Z</time>
      </trkpt>
      <trkpt lat="43.65149" lon="3.39539">
        <ele>176.53930664062</ele>
        <time>2015-10-04T11:18:25Z</time>
      </trkpt>
      <trkpt lat="43.65155" lon="3.39372">
        <ele>177.98120117188</ele>
        <time>2015-10-04T11:18:52Z</time>
      </trkpt>
      <trkpt lat="43.65041" lon="3.39078">
        <ele>175.57788085938</ele>
        <time>2015-10-04T11:19:46Z</time>
      </trkpt>
      <trkpt lat="43.64988" lon="3.39062">
        <ele>172.69396972656</ele>
        <time>2015-10-04T11:19:53Z</time>
      </trkpt>
      <trkpt lat="43.64945" lon="3.3907">
        <ele>169.32946777344</ele>
        <time>2015-10-04T11:19:58Z</time>
      </trkpt>
      <trkpt lat="43.6491" lon="3.39027">
        <ele>165.96472167969</ele>
        <time>2015-10-04T11:20:08Z</time>
      </trkpt>
      <trkpt lat="43.64911" lon="3.38993">
        <ele>162.60009765625</ele>
        <time>2015-10-04T11:20:12Z</time>
      </trkpt>
      <trkpt lat="43.64906" lon="3.38954">
        <ele>159.23547363281</ele>
        <time>2015-10-04T11:20:16Z</time>
      </trkpt>
      <trkpt lat="43.649" lon="3.38948">
        <ele>158.75476074219</ele>
        <time>2015-10-04T11:20:17Z</time>
      </trkpt>
      <trkpt lat="43.64889" lon="3.38935">
        <ele>158.27416992188</ele>
        <time>2015-10-04T11:20:19Z</time>
      </trkpt>
      <trkpt lat="43.64879" lon="3.38919">
        <ele>154.90954589844</ele>
        <time>2015-10-04T11:20:21Z</time>
      </trkpt>
      <trkpt lat="43.64838" lon="3.38885">
        <ele>151.06420898438</ele>
        <time>2015-10-04T11:20:28Z</time>
      </trkpt>
      <trkpt lat="43.64818" lon="3.38863">
        <ele>147.69970703125</ele>
        <time>2015-10-04T11:20:32Z</time>
      </trkpt>
      <trkpt lat="43.64809" lon="3.38858">
        <ele>148.18041992188</ele>
        <time>2015-10-04T11:20:38Z</time>
      </trkpt>
      <trkpt lat="43.64737" lon="3.38925">
        <ele>142.41247558594</ele>
        <time>2015-10-04T11:21:00Z</time>
      </trkpt>
      <trkpt lat="43.64735" lon="3.3892">
        <ele>142.41247558594</ele>
        <time>2015-10-04T11:21:01Z</time>
      </trkpt>
      <trkpt lat="43.64571" lon="3.38824">
        <ele>143.37365722656</ele>
        <time>2015-10-04T11:21:51Z</time>
      </trkpt>
      <trkpt lat="43.64556" lon="3.38818">
        <ele>145.29638671875</ele>
        <time>2015-10-04T11:21:56Z</time>
      </trkpt>
      <trkpt lat="43.64547" lon="3.38813">
        <ele>145.77709960938</ele>
        <time>2015-10-04T11:22:00Z</time>
      </trkpt>
      <trkpt lat="43.64545" lon="3.3878">
        <ele>144.33520507812</ele>
        <time>2015-10-04T11:22:07Z</time>
      </trkpt>
      <trkpt lat="43.64545" lon="3.38766">
        <ele>143.37365722656</ele>
        <time>2015-10-04T11:22:09Z</time>
      </trkpt>
      <trkpt lat="43.64543" lon="3.38747">
        <ele>143.85437011719</ele>
        <time>2015-10-04T11:22:12Z</time>
      </trkpt>
      <trkpt lat="43.64534" lon="3.38704">
        <ele>141.93176269531</ele>
        <time>2015-10-04T11:22:44Z</time>
      </trkpt>
    </trkseg>
  </trk>
</gpx>